Observation data for Estelline on 10/17/2019      Previous  Date       Current Mesonet Observations  Soil Data  Daily Summary Page  Observations in Plain Language
KES1 170500Z 18007KT 11/01 A3008 RMK A01 T01100005  RH  048%=      5-min Rain = 0
KES1 170501Z 18008KT 11/01 A3008 RMK A01 T01100005  RH  048%=      5-min Rain = 0
KES1 170502Z 18006KT 11/01 A3008 RMK A01 T01110006  RH  048%=      5-min Rain = 0
KES1 170503Z 17008KT 11/01 A3008 RMK A01 T01100005  RH  048%=      5-min Rain = 0
KES1 170504Z 18007KT 11/01 A3008 RMK A01 T01110005  RH  048%=      5-min Rain = 0
KES1 170505Z 18007KT 11/01 A3008 RMK A01 T01110005  RH  048%=      5-min Rain = 0
KES1 170506Z 18006KT 11/01 A3008 RMK A01 T01100005  RH  048%=      5-min Rain = 0
KES1 170507Z 18006KT 11/01 A3008 RMK A01 T01100005  RH  048%=      5-min Rain = 0
KES1 170508Z 18007KT 11/01 A3008 RMK A01 T01100006  RH  049%=      5-min Rain = 0
KES1 170509Z 18005KT 11/01 A3008 RMK A01 T01100005  RH  049%=      5-min Rain = 0
KES1 170510Z 18007KT 11/01 A3008 RMK A01 T01090005  RH  049%=      5-min Rain = 0
KES1 170511Z 18007KT 11/01 A3008 RMK A01 T01090006  RH  049%=      5-min Rain = 0
KES1 170512Z 18007KT 11/01 A3008 RMK A01 T01090006  RH  049%=      5-min Rain = 0
KES1 170513Z 18007KT 11/01 A3008 RMK A01 T01080006  RH  049%=      5-min Rain = 0
KES1 170514Z 18007KT 11/01 A3008 RMK A01 T01080006  RH  049%=      5-min Rain = 0
KES1 170515Z 18007KT 11/01 A3008 RMK A01 T01070006  RH  049%=      5-min Rain = 0
KES1 170516Z 18007KT 11/01 A3008 RMK A01 T01070006  RH  049%=      5-min Rain = 0
KES1 170517Z 18008KT 11/01 A3008 RMK A01 T01070006  RH  050%=      5-min Rain = 0
KES1 170518Z 18007KT 11/01 A3008 RMK A01 T01070006  RH  050%=      5-min Rain = 0
KES1 170519Z 18006KT 11/01 A3008 RMK A01 T01070006  RH  050%=      5-min Rain = 0
KES1 170520Z 18006KT 11/01 A3008 RMK A01 T01060006  RH  050%=      5-min Rain = 0
KES1 170521Z 18006KT 11/01 A3008 RMK A01 T01070006  RH  050%=      5-min Rain = 0
KES1 170522Z 19006KT 11/01 A3008 RMK A01 T01060006  RH  050%=      5-min Rain = 0
KES1 170523Z 18006KT 11/01 A3008 RMK A01 T01060005  RH  050%=      5-min Rain = 0
KES1 170524Z 19005KT 11/01 A3008 RMK A01 T01060005  RH  050%=      5-min Rain = 0
KES1 170525Z 19006KT 11/01 A3008 RMK A01 T01060005  RH  050%=      5-min Rain = 0
KES1 170526Z 19006KT 11/01 A3008 RMK A01 T01060005  RH  050%=      5-min Rain = 0
KES1 170527Z 18005KT 11/01 A3008 RMK A01 T01060005  RH  050%=      5-min Rain = 0
KES1 170528Z 18004KT 11/01 A3008 RMK A01 T01060005  RH  050%=      5-min Rain = 0
KES1 170529Z 19004KT 11/01 A3008 RMK A01 T01050005  RH  050%=      5-min Rain = 0
KES1 170530Z 19004KT 10/01 A3008 RMK A01 T01040005  RH  050%=      5-min Rain = 0
KES1 170531Z 18005KT 10/01 A3008 RMK A01 T01040005  RH  050%=      5-min Rain = 0
KES1 170532Z 18005KT 10/01 A3008 RMK A01 T01040005  RH  050%=      5-min Rain = 0
KES1 170533Z 19006KT 10/01 A3008 RMK A01 T01040005  RH  050%=      5-min Rain = 0
KES1 170534Z 18005KT 10/00 A3008 RMK A01 T01030004  RH  050%=      5-min Rain = 0
KES1 170535Z 18006KT 10/01 A3007 RMK A01 T01030005  RH  050%=      5-min Rain = 0
KES1 170536Z 18006KT 10/01 A3007 RMK A01 T01030005  RH  050%=      5-min Rain = 0
KES1 170537Z 18006KT 10/01 A3007 RMK A01 T01030005  RH  051%=      5-min Rain = 0
KES1 170538Z 18005KT 10/01 A3007 RMK A01 T01030005  RH  051%=      5-min Rain = 0
KES1 170539Z 18005KT 10/01 A3007 RMK A01 T01020005  RH  051%=      5-min Rain = 0
KES1 170540Z 18007KT 10/01 A3007 RMK A01 T01020005  RH  051%=      5-min Rain = 0
KES1 170541Z 17005KT 10/01 A3007 RMK A01 T01010005  RH  051%=      5-min Rain = 0
KES1 170542Z 18006KT 10/01 A3007 RMK A01 T01010005  RH  051%=      5-min Rain = 0
KES1 170543Z 18005KT 10/01 A3007 RMK A01 T01010005  RH  051%=      5-min Rain = 0
KES1 170544Z 17006KT 10/01 A3007 RMK A01 T01010005  RH  051%=      5-min Rain = 0
KES1 170545Z 18005KT 10/01 A3007 RMK A01 T01010005  RH  051%=      5-min Rain = 0
KES1 170546Z 17006KT 10/01 A3007 RMK A01 T01000005  RH  052%=      5-min Rain = 0
KES1 170547Z 18006KT 10/01 A3007 RMK A01 T01000005  RH  052%=      5-min Rain = 0
KES1 170548Z 18006KT 10/01 A3007 RMK A01 T01000005  RH  051%=      5-min Rain = 0
KES1 170549Z 18006KT 10/01 A3007 RMK A01 T01010005  RH  051%=      5-min Rain = 0
KES1 170550Z 18007KT 10/01 A3007 RMK A01 T01010005  RH  052%=      5-min Rain = 0
KES1 170551Z 17006KT 10/01 A3007 RMK A01 T01000005  RH  052%=      5-min Rain = 0
KES1 170552Z 18006KT 10/01 A3007 RMK A01 T01000005  RH  052%=      5-min Rain = 0
KES1 170553Z 18006KT 10/01 A3007 RMK A01 T01000005  RH  052%=      5-min Rain = 0
KES1 170554Z 18006KT 10/01 A3007 RMK A01 T01000005  RH  052%=      5-min Rain = 0
KES1 170555Z 18007KT 10/01 A3007 RMK A01 T01000005  RH  051%=      5-min Rain = 0
KES1 170556Z 19008KT 10/01 A3007 RMK A01 T01010005  RH  051%=      5-min Rain = 0
KES1 170557Z 18008KT 10/01 A3007 RMK A01 T01020005  RH  051%=      5-min Rain = 0
KES1 170558Z 19008KT 10/01 A3007 RMK A01 T01030005  RH  050%=      5-min Rain = 0
KES1 170559Z 19009KT 11/01 A3007 RMK A01 T01050005  RH  050%=      5-min Rain = 0
KES1 170600Z 19010KT 11/01 A3007 RMK A01 T01060005  RH  049%=      5-min Rain = 0
KES1 170601Z 19010KT 11/00 A3007 RMK A01 T01070004  RH  049%=      5-min Rain = 0
KES1 170602Z 18011KT 11/00 A3007 RMK A01 T01090004  RH  048%=      5-min Rain = 0
KES1 170603Z 19010KT 11/00 A3007 RMK A01 T01090004  RH  048%=      5-min Rain = 0
KES1 170604Z 19010G16KT 11/00 A3007 RMK A01 T01100004  RH  048%=      5-min Rain = 0
KES1 170605Z 19009KT 11/00 A3007 RMK A01 T01110004  RH  048%=      5-min Rain = 0
KES1 170606Z 19010KT 11/00 A3007 RMK A01 T01110003  RH  047%=      5-min Rain = 0
KES1 170607Z 18009KT 11/00 A3007 RMK A01 T01120004  RH  047%=      5-min Rain = 0
KES1 170608Z 19010KT 11/00 A3007 RMK A01 T01120004  RH  047%=      5-min Rain = 0
KES1 170609Z 19008KT 11/00 A3007 RMK A01 T01120004  RH  047%=      5-min Rain = 0
KES1 170610Z 19010KT 11/00 A3007 RMK A01 T01120003  RH  047%=      5-min Rain = 0
KES1 170611Z 19011KT 11/00 A3007 RMK A01 T01120003  RH  047%=      5-min Rain = 0
KES1 170612Z 19008KT 11/00 A3007 RMK A01 T01120003  RH  047%=      5-min Rain = 0
KES1 170613Z 19008KT 11/00 A3007 RMK A01 T01120003  RH  047%=      5-min Rain = 0
KES1 170614Z 19008KT 11/00 A3007 RMK A01 T01110003  RH  048%=      5-min Rain = 0
KES1 170615Z 19009KT 11/00 A3007 RMK A01 T01100003  RH  048%=      5-min Rain = 0
KES1 170616Z 19009KT 11/00 A3007 RMK A01 T01100004  RH  048%=      5-min Rain = 0
KES1 170617Z 19009KT 11/00 A3007 RMK A01 T01090003  RH  048%=      5-min Rain = 0
KES1 170618Z 19010KT 11/00 A3007 RMK A01 T01090003  RH  048%=      5-min Rain = 0
KES1 170619Z 19009KT 11/00 A3007 RMK A01 T01090003  RH  048%=      5-min Rain = 0
KES1 170620Z 19008KT 11/00 A3007 RMK A01 T01090004  RH  048%=      5-min Rain = 0
KES1 170621Z 19007KT 11/00 A3007 RMK A01 T01090003  RH  048%=      5-min Rain = 0
KES1 170622Z 19009KT 11/00 A3007 RMK A01 T01080003  RH  048%=      5-min Rain = 0
KES1 170623Z 19008KT 11/00 A3007 RMK A01 T01080003  RH  048%=      5-min Rain = 0
KES1 170624Z 19008KT 11/00 A3007 RMK A01 T01080003  RH  048%=      5-min Rain = 0
KES1 170625Z 18007KT 11/00 A3007 RMK A01 T01090003  RH  048%=      5-min Rain = 0
KES1 170626Z 19007KT 11/00 A3007 RMK A01 T01090003  RH  048%=      5-min Rain = 0
KES1 170627Z 18008KT 11/00 A3007 RMK A01 T01090003  RH  048%=      5-min Rain = 0
KES1 170628Z 18007KT 11/00 A3007 RMK A01 T01090003  RH  048%=      5-min Rain = 0
KES1 170629Z 18007KT 11/00 A3007 RMK A01 T01090003  RH  048%=      5-min Rain = 0
KES1 170630Z 18007KT 11/00 A3007 RMK A01 T01080003  RH  048%=      5-min Rain = 0
KES1 170631Z 18007KT 11/00 A3007 RMK A01 T01060003  RH  049%=      5-min Rain = 0
KES1 170632Z 19007KT 11/00 A3007 RMK A01 T01060003  RH  049%=      5-min Rain = 0
KES1 170633Z 18007KT 11/00 A3007 RMK A01 T01060003  RH  049%=      5-min Rain = 0
KES1 170634Z 18006KT 11/00 A3007 RMK A01 T01060003  RH  049%=      5-min Rain = 0
KES1 170635Z 18007KT 11/00 A3007 RMK A01 T01050003  RH  049%=      5-min Rain = 0
KES1 170705Z 18009KT 11/00 A3007 RMK A01 T01070003  RH  049%=      5-min Rain = 0
KES1 170706Z 18008KT 11/00 A3007 RMK A01 T01070003  RH  048%=      5-min Rain = 0
KES1 170707Z 18008KT 11/00 A3007 RMK A01 T01070003  RH  048%=      5-min Rain = 0
KES1 170708Z 18008KT 11/00 A3007 RMK A01 T01070003  RH  048%=      5-min Rain = 0
KES1 170709Z 18008KT 11/00 A3007 RMK A01 T01080003  RH  048%=      5-min Rain = 0
KES1 170710Z 18007KT 11/00 A3007 RMK A01 T01080003  RH  048%=      5-min Rain = 0
KES1 170711Z 18007KT 11/00 A3007 RMK A01 T01080003  RH  048%=      5-min Rain = 0
KES1 170712Z 18007KT 11/00 A3007 RMK A01 T01080003  RH  048%=      5-min Rain = 0
KES1 170713Z 18008KT 11/00 A3007 RMK A01 T01080003  RH  048%=      5-min Rain = 0
KES1 170714Z 18007KT 11/00 A3007 RMK A01 T01080003  RH  048%=      5-min Rain = 0
KES1 170715Z 18006KT 11/00 A3007 RMK A01 T01080003  RH  048%=      5-min Rain = 0
KES1 170716Z 18007KT 11/00 A3007 RMK A01 T01070003  RH  048%=      5-min Rain = 0
KES1 170717Z 18007KT 11/00 A3007 RMK A01 T01070003  RH  049%=      5-min Rain = 0
KES1 170718Z 18007KT 11/00 A3007 RMK A01 T01070003  RH  049%=      5-min Rain = 0
KES1 170719Z 18006KT 11/00 A3007 RMK A01 T01060003  RH  049%=      5-min Rain = 0
KES1 170720Z 19007KT 11/00 A3007 RMK A01 T01060003  RH  049%=      5-min Rain = 0
KES1 170721Z 19007KT 11/00 A3007 RMK A01 T01070003  RH  049%=      5-min Rain = 0
KES1 170722Z 18007KT 11/00 A3007 RMK A01 T01070002  RH  048%=      5-min Rain = 0
KES1 170723Z 18007KT 11/00 A3007 RMK A01 T01070002  RH  048%=      5-min Rain = 0
KES1 170724Z 18006KT 11/00 A3007 RMK A01 T01070002  RH  048%=      5-min Rain = 0
KES1 170725Z 18006KT 11/00 A3007 RMK A01 T01070002  RH  048%=      5-min Rain = 0
KES1 170729Z 18006KT 11/00 A3007 RMK A01 T01070002  RH  048%=      5-min Rain = 0
KES1 170730Z 18005KT 11/00 A3008 RMK A01 T01070003  RH  049%=      5-min Rain = 0
KES1 170731Z 19006KT 11/00 A3008 RMK A01 T01060002  RH  049%=      5-min Rain = 0
KES1 170732Z 19006KT 11/00 A3008 RMK A01 T01060003  RH  049%=      5-min Rain = 0
KES1 170733Z 19005KT 11/00 A3008 RMK A01 T01060002  RH  049%=      5-min Rain = 0
KES1 170734Z 18005KT 11/00 A3007 RMK A01 T01050003  RH  049%=      5-min Rain = 0
KES1 170735Z 18004KT 10/00 A3007 RMK A01 T01040002  RH  049%=      5-min Rain = 0
KES1 170736Z 19005KT 10/00 A3007 RMK A01 T01030002  RH  050%=      5-min Rain = 0
KES1 170737Z 19005KT 10/00 A3007 RMK A01 T01020002  RH  050%=      5-min Rain = 0
KES1 170738Z 19005KT 10/00 A3007 RMK A01 T01020003  RH  050%=      5-min Rain = 0
KES1 170739Z 19005KT 10/00 A3007 RMK A01 T01010003  RH  051%=      5-min Rain = 0
KES1 170740Z 18006KT 10/00 A3007 RMK A01 T01000003  RH  051%=      5-min Rain = 0
KES1 170741Z 18006KT 10/00 A3007 RMK A01 T00980003  RH  051%=      5-min Rain = 0
KES1 170742Z 18006KT 10/00 A3007 RMK A01 T00980003  RH  052%=      5-min Rain = 0
KES1 170743Z 18006KT 10/00 A3007 RMK A01 T00960003  RH  052%=      5-min Rain = 0
KES1 170744Z 18007KT 10/00 A3007 RMK A01 T00950003  RH  052%=      5-min Rain = 0
KES1 170745Z 18006KT 10/00 A3007 RMK A01 T00950003  RH  053%=      5-min Rain = 0
KES1 170746Z 18006KT 09/00 A3007 RMK A01 T00940003  RH  053%=      5-min Rain = 0
KES1 170747Z 17006KT 09/00 A3007 RMK A01 T00940003  RH  053%=      5-min Rain = 0
KES1 170748Z 17006KT 09/00 A3007 RMK A01 T00930003  RH  054%=      5-min Rain = 0
KES1 170749Z 17006KT 09/00 A3007 RMK A01 T00910003  RH  054%=      5-min Rain = 0
KES1 170750Z 17006KT 09/00 A3007 RMK A01 T00880003  RH  055%=      5-min Rain = 0
KES1 170751Z 17006KT 09/00 A3007 RMK A01 T00860003  RH  056%=      5-min Rain = 0
KES1 170752Z 18006KT 09/00 A3007 RMK A01 T00860003  RH  056%=      5-min Rain = 0
KES1 170753Z 18006KT 09/00 A3007 RMK A01 T00870004  RH  056%=      5-min Rain = 0
KES1 170754Z 17005KT 09/00 A3007 RMK A01 T00890003  RH  055%=      5-min Rain = 0
KES1 170755Z 18005KT 09/00 A3007 RMK A01 T00890003  RH  055%=      5-min Rain = 0
KES1 170756Z 18005KT 09/00 A3007 RMK A01 T00900003  RH  055%=      5-min Rain = 0
KES1 170757Z 18005KT 09/00 A3007 RMK A01 T00900003  RH  054%=      5-min Rain = 0
KES1 170758Z 18005KT 09/00 A3007 RMK A01 T00910003  RH  054%=      5-min Rain = 0
KES1 170759Z 18005KT 09/00 A3007 RMK A01 T00910003  RH  054%=      5-min Rain = 0
KES1 170800Z 18006KT 09/00 A3007 RMK A01 T00910003  RH  054%=      5-min Rain = 0
KES1 170801Z 18005KT 09/00 A3007 RMK A01 T00920003  RH  054%=      5-min Rain = 0
KES1 170802Z 18004KT 09/00 A3007 RMK A01 T00930004  RH  054%=      5-min Rain = 0
KES1 170803Z 18004KT 09/00 A3007 RMK A01 T00910003  RH  054%=      5-min Rain = 0
KES1 170804Z 18005KT 09/00 A3007 RMK A01 T00900003  RH  054%=      5-min Rain = 0
KES1 170805Z 18005KT 09/00 A3007 RMK A01 T00900003  RH  055%=      5-min Rain = 0
KES1 170806Z 18005KT 09/00 A3007 RMK A01 T00890003  RH  055%=      5-min Rain = 0
KES1 170807Z 18004KT 09/00 A3007 RMK A01 T00890003  RH  055%=      5-min Rain = 0
KES1 170808Z 18005KT 09/00 A3007 RMK A01 T00890003  RH  055%=      5-min Rain = 0
KES1 170809Z 19005KT 09/00 A3007 RMK A01 T00900003  RH  054%=      5-min Rain = 0
KES1 170810Z 18005KT 09/00 A3007 RMK A01 T00920003  RH  054%=      5-min Rain = 0
KES1 170811Z 19005KT 09/00 A3007 RMK A01 T00930003  RH  053%=      5-min Rain = 0
KES1 170812Z 19005KT 09/00 A3007 RMK A01 T00930003  RH  053%=      5-min Rain = 0
KES1 170813Z 18005KT 09/00 A3007 RMK A01 T00930003  RH  053%=      5-min Rain = 0
KES1 170814Z 19004KT 09/00 A3006 RMK A01 T00940003  RH  053%=      5-min Rain = 0
KES1 170815Z 19005KT 09/00 A3006 RMK A01 T00940003  RH  053%=      5-min Rain = 0
KES1 170816Z 19005KT 09/00 A3006 RMK A01 T00940002  RH  053%=      5-min Rain = 0
KES1 170817Z 19005KT 10/00 A3006 RMK A01 T00950003  RH  053%=      5-min Rain = 0
KES1 170818Z 19005KT 10/00 A3006 RMK A01 T00950002  RH  052%=      5-min Rain = 0
KES1 170819Z 19005KT 10/00 A3006 RMK A01 T00960002  RH  052%=      5-min Rain = 0
KES1 170820Z 19005KT 10/00 A3006 RMK A01 T00970002  RH  052%=      5-min Rain = 0
KES1 170821Z 20005KT 10/00 A3006 RMK A01 T00970002  RH  052%=      5-min Rain = 0
KES1 170822Z 20004KT 10/00 A3006 RMK A01 T00980002  RH  051%=      5-min Rain = 0
KES1 170823Z 20004KT 10/00 A3006 RMK A01 T00970002  RH  052%=      5-min Rain = 0
KES1 170824Z 22003KT 10/00 A3006 RMK A01 T00970002  RH  052%=      5-min Rain = 0
KES1 170825Z 23001KT 10/00 A3007 RMK A01 T00960002  RH  052%=      5-min Rain = 0
KES1 170826Z 27002KT 09/00 A3007 RMK A01 T00910002  RH  053%=      5-min Rain = 0
KES1 170827Z 27002KT 09/00 A3007 RMK A01 T00850001  RH  055%=      5-min Rain = 0
KES1 170828Z 27002KT 08/00 A3006 RMK A01 T008000-0  RH  057%=      5-min Rain = 0
KES1 170829Z 27002KT 08/00 A3006 RMK A01 T00760000  RH  059%=      5-min Rain = 0
KES1 170830Z 27002KT 07/00 A3006 RMK A01 T00740001  RH  060%=      5-min Rain = 0
KES1 170831Z 27002KT 07/00 A3006 RMK A01 T00730001  RH  060%=      5-min Rain = 0
KES1 170832Z 26003KT 07/00 A3006 RMK A01 T00710001  RH  061%=      5-min Rain = 0
KES1 170833Z 25003KT 07/00 A3006 RMK A01 T00700001  RH  061%=      5-min Rain = 0
KES1 170834Z 26003KT 07/00 A3006 RMK A01 T00700001  RH  062%=      5-min Rain = 0
KES1 170835Z 25003KT 07/00 A3006 RMK A01 T00700001  RH  062%=      5-min Rain = 0
KES1 170836Z 24003KT 07/00 A3006 RMK A01 T00690001  RH  062%=      5-min Rain = 0
KES1 170837Z 23003KT 07/00 A3006 RMK A01 T00700001  RH  062%=      5-min Rain = 0
KES1 170838Z 22004KT 07/00 A3006 RMK A01 T00700002  RH  062%=      5-min Rain = 0
KES1 170839Z 23003KT 07/00 A3006 RMK A01 T00710002  RH  061%=      5-min Rain = 0
KES1 170840Z 23004KT 07/00 A3006 RMK A01 T00720001  RH  061%=      5-min Rain = 0
KES1 170841Z 22004KT 07/00 A3006 RMK A01 T00700000  RH  061%=      5-min Rain = 0
KES1 170842Z 22004KT 07/00 A3006 RMK A01 T006800-0  RH  062%=      5-min Rain = 0
KES1 170843Z 22004KT 07/00 A3006 RMK A01 T00660000  RH  063%=      5-min Rain = 0
KES1 170844Z 23005KT 07/00 A3006 RMK A01 T00660001  RH  063%=      5-min Rain = 0
KES1 170845Z 23005KT 07/00 A3006 RMK A01 T00660000  RH  063%=      5-min Rain = 0
KES1 170846Z 23005KT 07/00 A3006 RMK A01 T00670000  RH  063%=      5-min Rain = 0
KES1 170847Z 22005KT 07/00 A3006 RMK A01 T00670000  RH  062%=      5-min Rain = 0
KES1 170848Z 22004KT 07/00 A3006 RMK A01 T006800-0  RH  062%=      5-min Rain = 0
KES1 170849Z 22003KT 07/00 A3006 RMK A01 T00680000  RH  062%=      5-min Rain = 0
KES1 170850Z 22003KT 07/00 A3006 RMK A01 T00690000  RH  062%=      5-min Rain = 0
KES1 170851Z 22003KT 07/00 A3006 RMK A01 T00700001  RH  061%=      5-min Rain = 0
KES1 170852Z 23003KT 07/00 A3006 RMK A01 T00710001  RH  061%=      5-min Rain = 0
KES1 170853Z 23003KT 07/00 A3006 RMK A01 T00720001  RH  061%=      5-min Rain = 0
KES1 170854Z 23002KT 07/00 A3006 RMK A01 T00720000  RH  060%=      5-min Rain = 0
KES1 170855Z 22003KT 07/00 A3006 RMK A01 T00720001  RH  060%=      5-min Rain = 0
KES1 170856Z 22003KT 07/00 A3006 RMK A01 T00730000  RH  060%=      5-min Rain = 0
KES1 170857Z 22003KT 07/00 A3006 RMK A01 T00730000  RH  060%=      5-min Rain = 0
KES1 170858Z 21003KT 07/00 A3006 RMK A01 T00730000  RH  060%=      5-min Rain = 0
KES1 170859Z 21003KT 07/00 A3006 RMK A01 T00730000  RH  060%=      5-min Rain = 0
KES1 170900Z 21003KT 07/00 A3006 RMK A01 T00730000  RH  060%=      5-min Rain = 0
KES1 170901Z 21004KT 07/00 A3006 RMK A01 T00740000  RH  060%=      5-min Rain = 0
KES1 170902Z 20005KT 08/00 A3006 RMK A01 T00750001  RH  059%=      5-min Rain = 0
KES1 170903Z 20005KT 08/00 A3006 RMK A01 T00750001  RH  059%=      5-min Rain = 0
KES1 170904Z 20005KT 08/00 A3006 RMK A01 T00770001  RH  058%=      5-min Rain = 0
KES1 170905Z 20005KT 08/00 A3006 RMK A01 T00780001  RH  058%=      5-min Rain = 0
KES1 170906Z 20006KT 08/00 A3006 RMK A01 T00800001  RH  057%=      5-min Rain = 0
KES1 170907Z 20006KT 08/00 A3006 RMK A01 T00810001  RH  057%=      5-min Rain = 0
KES1 170908Z 20006KT 08/00 A3005 RMK A01 T00810001  RH  057%=      5-min Rain = 0
KES1 170909Z 20006KT 08/00 A3005 RMK A01 T00810001  RH  057%=      5-min Rain = 0
KES1 170910Z 19006KT 08/00 A3005 RMK A01 T00810001  RH  057%=      5-min Rain = 0
KES1 170911Z 19007KT 08/00 A3005 RMK A01 T00810001  RH  057%=      5-min Rain = 0
KES1 170912Z 19007KT 08/00 A3005 RMK A01 T00800001  RH  057%=      5-min Rain = 0
KES1 170913Z 19007KT 08/00 A3005 RMK A01 T00800000  RH  057%=      5-min Rain = 0
KES1 170914Z 19007KT 08/00 A3005 RMK A01 T00810000  RH  057%=      5-min Rain = 0
KES1 170915Z 19007KT 08/00 A3005 RMK A01 T00820000  RH  057%=      5-min Rain = 0
KES1 170916Z 19007KT 08/00 A3005 RMK A01 T00830000  RH  056%=      5-min Rain = 0
KES1 170917Z 19007KT 08/00 A3005 RMK A01 T00840001  RH  056%=      5-min Rain = 0
KES1 170918Z 19007KT 09/00 A3005 RMK A01 T00850000  RH  055%=      5-min Rain = 0
KES1 170919Z 19007KT 09/00 A3005 RMK A01 T00850000  RH  055%=      5-min Rain = 0
KES1 170920Z 19007KT 09/00 A3005 RMK A01 T00860000  RH  055%=      5-min Rain = 0
KES1 170921Z 19007KT 09/00 A3005 RMK A01 T00870000  RH  054%=      5-min Rain = 0
KES1 170922Z 19007KT 09/00 A3005 RMK A01 T00890000  RH  054%=      5-min Rain = 0
KES1 170923Z 19007KT 09/00 A3005 RMK A01 T00900000  RH  053%=      5-min Rain = 0
KES1 170924Z 19008KT 09/00 A3005 RMK A01 T00900000  RH  053%=      5-min Rain = 0
KES1 170925Z 19008KT 09/00 A3005 RMK A01 T00910000  RH  053%=      5-min Rain = 0
KES1 170926Z 19008KT 09/00 A3005 RMK A01 T009200-0  RH  052%=      5-min Rain = 0
KES1 170927Z 19007KT 09/00 A3005 RMK A01 T009300-0  RH  052%=      5-min Rain = 0
KES1 170928Z 19008KT 09/00 A3005 RMK A01 T009400-0  RH  052%=      5-min Rain = 0
KES1 170929Z 19008KT 09/00 A3004 RMK A01 T009400-0  RH  052%=      5-min Rain = 0
KES1 170930Z 19007KT 10/M00 A3004 RMK A01 T00951001  RH  051%=      5-min Rain = 0
KES1 170931Z 19007KT 10/00 A3004 RMK A01 T009500-0  RH  051%=      5-min Rain = 0
KES1 170932Z 19008KT 10/M00 A3004 RMK A01 T00961001  RH  051%=      5-min Rain = 0
KES1 170933Z 19007KT 10/M00 A3004 RMK A01 T00951001  RH  051%=      5-min Rain = 0
KES1 170934Z 19008KT 10/00 A3004 RMK A01 T009600-0  RH  051%=      5-min Rain = 0
KES1 170935Z 19008KT 10/M00 A3005 RMK A01 T00951001  RH  051%=      5-min Rain = 0
KES1 170936Z 19009KT 10/M00 A3005 RMK A01 T00961001  RH  051%=      5-min Rain = 0
KES1 170937Z 19008KT 10/M00 A3005 RMK A01 T00971001  RH  051%=      5-min Rain = 0
KES1 170938Z 19009KT 10/M00 A3005 RMK A01 T00971001  RH  050%=      5-min Rain = 0
KES1 170939Z 18010KT 10/M00 A3004 RMK A01 T00981001  RH  050%=      5-min Rain = 0
KES1 170940Z 19010KT 10/M00 A3004 RMK A01 T01001001  RH  049%=      5-min Rain = 0
KES1 170941Z 18009KT 10/M00 A3004 RMK A01 T01011001  RH  049%=      5-min Rain = 0
KES1 170942Z 19009KT 10/M00 A3004 RMK A01 T01021001  RH  049%=      5-min Rain = 0
KES1 170943Z 19010KT 10/M00 A3004 RMK A01 T01021001  RH  049%=      5-min Rain = 0
KES1 170944Z 18010KT 10/M00 A3004 RMK A01 T01031001  RH  048%=      5-min Rain = 0
KES1 170945Z 18011KT 10/M00 A3004 RMK A01 T01041002  RH  048%=      5-min Rain = 0
KES1 170946Z 19010KT 11/M00 A3004 RMK A01 T01051002  RH  048%=      5-min Rain = 0
KES1 170947Z 19011KT 11/M00 A3004 RMK A01 T01061002  RH  047%=      5-min Rain = 0
KES1 170948Z 19010KT 11/M00 A3004 RMK A01 T01071002  RH  047%=      5-min Rain = 0
KES1 170949Z 19009KT 11/M00 A3004 RMK A01 T01081002  RH  046%=      5-min Rain = 0
KES1 170950Z 19010KT 11/M00 A3004 RMK A01 T01081002  RH  046%=      5-min Rain = 0
KES1 170951Z 19010KT 11/M00 A3004 RMK A01 T01081003  RH  046%=      5-min Rain = 0
KES1 170952Z 18010KT 11/M00 A3004 RMK A01 T01081003  RH  046%=      5-min Rain = 0
KES1 170953Z 19009KT 11/M00 A3004 RMK A01 T01081003  RH  046%=      5-min Rain = 0
KES1 170954Z 18011KT 11/M00 A3004 RMK A01 T01091003  RH  046%=      5-min Rain = 0
KES1 170955Z 18009KT 11/M00 A3004 RMK A01 T01091003  RH  046%=      5-min Rain = 0
KES1 170956Z 18010KT 11/M00 A3004 RMK A01 T01101003  RH  046%=      5-min Rain = 0
KES1 170957Z 18010KT 11/M00 A3004 RMK A01 T01101003  RH  046%=      5-min Rain = 0
KES1 170958Z 18010KT 11/M00 A3004 RMK A01 T01101003  RH  046%=      5-min Rain = 0
KES1 170959Z 19010KT 11/M00 A3004 RMK A01 T01091003  RH  046%=      5-min Rain = 0
KES1 171000Z 18010KT 11/M00 A3004 RMK A01 T01101003  RH  046%=      5-min Rain = 0
KES1 171001Z 18009KT 11/M00 A3004 RMK A01 T01101003  RH  046%=      5-min Rain = 0
KES1 171002Z 18010KT 11/M00 A3004 RMK A01 T01101002  RH  046%=      5-min Rain = 0
KES1 171003Z 18010KT 11/M00 A3004 RMK A01 T01091003  RH  046%=      5-min Rain = 0
KES1 171004Z 18010KT 11/M00 A3004 RMK A01 T01091003  RH  046%=      5-min Rain = 0
KES1 171005Z 18010KT 11/M00 A3004 RMK A01 T01091003  RH  046%=      5-min Rain = 0
KES1 171006Z 19010KT 11/M00 A3004 RMK A01 T01091003  RH  046%=      5-min Rain = 0
KES1 171007Z 18009KT 11/M00 A3004 RMK A01 T01101003  RH  046%=      5-min Rain = 0
KES1 171008Z 18009KT 11/M00 A3004 RMK A01 T01101003  RH  045%=      5-min Rain = 0
KES1 171009Z 18008KT 11/M00 A3004 RMK A01 T01101003  RH  046%=      5-min Rain = 0
KES1 171010Z 18009KT 11/M00 A3004 RMK A01 T01091003  RH  046%=      5-min Rain = 0
KES1 171011Z 19009KT 11/M00 A3004 RMK A01 T01091003  RH  046%=      5-min Rain = 0
KES1 171012Z 19008KT 11/M00 A3004 RMK A01 T01101003  RH  045%=      5-min Rain = 0
KES1 171013Z 18008KT 11/M00 A3004 RMK A01 T01101003  RH  045%=      5-min Rain = 0
KES1 171014Z 18008KT 11/M00 A3004 RMK A01 T01111004  RH  045%=      5-min Rain = 0
KES1 171015Z 18009KT 11/M00 A3004 RMK A01 T01111004  RH  045%=      5-min Rain = 0
KES1 171016Z 18007KT 11/M00 A3004 RMK A01 T01111004  RH  045%=      5-min Rain = 0
KES1 171017Z 18008KT 11/M00 A3004 RMK A01 T01101004  RH  045%=      5-min Rain = 0
KES1 171018Z 18008KT 11/M00 A3004 RMK A01 T01101003  RH  046%=      5-min Rain = 0
KES1 171019Z 18008KT 11/M00 A3004 RMK A01 T01091004  RH  046%=      5-min Rain = 0
KES1 171020Z 18007KT 11/M00 A3004 RMK A01 T01091003  RH  046%=      5-min Rain = 0
KES1 171021Z 18007KT 11/M00 A3004 RMK A01 T01081003  RH  046%=      5-min Rain = 0
KES1 171022Z 18008KT 11/M00 A3004 RMK A01 T01081003  RH  046%=      5-min Rain = 0
KES1 171023Z 18008KT 11/M00 A3004 RMK A01 T01071004  RH  046%=      5-min Rain = 0
KES1 171024Z 19008KT 11/M00 A3004 RMK A01 T01071004  RH  046%=      5-min Rain = 0
KES1 171025Z 18008KT 11/M00 A3004 RMK A01 T01071004  RH  046%=      5-min Rain = 0
KES1 171026Z 19007KT 11/M00 A3004 RMK A01 T01071004  RH  046%=      5-min Rain = 0
KES1 171027Z 19008KT 11/M00 A3004 RMK A01 T01061004  RH  046%=      5-min Rain = 0
KES1 171028Z 19008KT 11/M00 A3004 RMK A01 T01061004  RH  047%=      5-min Rain = 0
KES1 171029Z 19008KT 11/M00 A3004 RMK A01 T01061003  RH  047%=      5-min Rain = 0
KES1 171030Z 19008KT 11/M00 A3004 RMK A01 T01061004  RH  047%=      5-min Rain = 0
KES1 171031Z 19007KT 11/M00 A3004 RMK A01 T01061004  RH  046%=      5-min Rain = 0
KES1 171032Z 19007KT 11/M00 A3004 RMK A01 T01061004  RH  047%=      5-min Rain = 0
KES1 171033Z 19007KT 11/M00 A3004 RMK A01 T01051004  RH  047%=      5-min Rain = 0
KES1 171034Z 19007KT 11/M00 A3004 RMK A01 T01051004  RH  047%=      5-min Rain = 0
KES1 171035Z 20006KT 10/M00 A3004 RMK A01 T01041003  RH  047%=      5-min Rain = 0
KES1 171036Z 19006KT 10/M00 A3004 RMK A01 T01031003  RH  048%=      5-min Rain = 0
KES1 171037Z 20005KT 10/M00 A3004 RMK A01 T01011003  RH  048%=      5-min Rain = 0
KES1 171038Z 19006KT 10/M00 A3004 RMK A01 T00981003  RH  049%=      5-min Rain = 0
KES1 171039Z 19006KT 10/M00 A3004 RMK A01 T00951004  RH  050%=      5-min Rain = 0
KES1 171040Z 19006KT 09/M00 A3004 RMK A01 T00941003  RH  050%=      5-min Rain = 0
KES1 171041Z 19007KT 09/M00 A3004 RMK A01 T00941003  RH  051%=      5-min Rain = 0
KES1 171042Z 18007KT 10/M00 A3004 RMK A01 T00951003  RH  050%=      5-min Rain = 0
KES1 171043Z 18008KT 10/M00 A3004 RMK A01 T00951003  RH  050%=      5-min Rain = 0
KES1 171044Z 18009KT 10/M00 A3004 RMK A01 T00961003  RH  050%=      5-min Rain = 0
KES1 171045Z 19008KT 10/M00 A3004 RMK A01 T00971003  RH  050%=      5-min Rain = 0
KES1 171046Z 18009KT 10/M00 A3004 RMK A01 T00981003  RH  049%=      5-min Rain = 0
KES1 171047Z 18009KT 10/M00 A3004 RMK A01 T00991003  RH  049%=      5-min Rain = 0
KES1 171048Z 18008KT 10/M00 A3004 RMK A01 T00991003  RH  049%=      5-min Rain = 0
KES1 171049Z 18008KT 10/M00 A3004 RMK A01 T01001003  RH  049%=      5-min Rain = 0
KES1 171050Z 17008KT 10/M00 A3004 RMK A01 T01001004  RH  048%=      5-min Rain = 0
KES1 171051Z 18008KT 10/M00 A3004 RMK A01 T01011003  RH  048%=      5-min Rain = 0
KES1 171052Z 18008KT 10/M00 A3004 RMK A01 T01011003  RH  048%=      5-min Rain = 0
KES1 171053Z 18008KT 10/M00 A3004 RMK A01 T01011003  RH  048%=      5-min Rain = 0
KES1 171054Z 17008KT 10/M00 A3003 RMK A01 T01011003  RH  048%=      5-min Rain = 0
KES1 171055Z 17008KT 10/M00 A3003 RMK A01 T01011003  RH  048%=      5-min Rain = 0
KES1 171056Z 18008KT 10/M00 A3003 RMK A01 T01011003  RH  048%=      5-min Rain = 0
KES1 171057Z 18008KT 10/M00 A3003 RMK A01 T01011004  RH  048%=      5-min Rain = 0
KES1 171058Z 18008KT 10/M00 A3003 RMK A01 T01021003  RH  048%=      5-min Rain = 0
KES1 171059Z 17008KT 10/M00 A3003 RMK A01 T01011003  RH  048%=      5-min Rain = 0
KES1 171100Z 17008KT 10/M00 A3003 RMK A01 T01011003  RH  048%=      5-min Rain = 0
KES1 171101Z 18008KT 10/M00 A3003 RMK A01 T01011003  RH  048%=      5-min Rain = 0
KES1 171102Z 18008KT 10/M00 A3003 RMK A01 T01001003  RH  049%=      5-min Rain = 0
KES1 171103Z 18009KT 10/M00 A3003 RMK A01 T01001004  RH  049%=      5-min Rain = 0
KES1 171104Z 17007KT 10/M00 A3003 RMK A01 T01001003  RH  049%=      5-min Rain = 0
KES1 171105Z 17008KT 10/M00 A3003 RMK A01 T00991003  RH  049%=      5-min Rain = 0
KES1 171106Z 17007KT 10/M00 A3003 RMK A01 T00981003  RH  049%=      5-min Rain = 0
KES1 171107Z 17007KT 10/M00 A3003 RMK A01 T00981003  RH  049%=      5-min Rain = 0
KES1 171108Z 17007KT 10/M00 A3003 RMK A01 T00981003  RH  050%=      5-min Rain = 0
KES1 171109Z 18007KT 10/M00 A3003 RMK A01 T00971003  RH  050%=      5-min Rain = 0
KES1 171110Z 17007KT 10/M00 A3003 RMK A01 T00971003  RH  050%=      5-min Rain = 0
KES1 171111Z 17007KT 10/M00 A3003 RMK A01 T00961003  RH  050%=      5-min Rain = 0
KES1 171112Z 18008KT 10/M00 A3003 RMK A01 T00961002  RH  050%=      5-min Rain = 0
KES1 171113Z 17007KT 10/M00 A3003 RMK A01 T00951003  RH  050%=      5-min Rain = 0
KES1 171114Z 18008KT 10/M00 A3003 RMK A01 T00961003  RH  050%=      5-min Rain = 0
KES1 171115Z 17007KT 10/M00 A3003 RMK A01 T00961003  RH  050%=      5-min Rain = 0
KES1 171116Z 18007KT 10/M00 A3003 RMK A01 T00961002  RH  050%=      5-min Rain = 0
KES1 171117Z 18007KT 10/M00 A3003 RMK A01 T00951002  RH  051%=      5-min Rain = 0
KES1 171118Z 17007KT 10/M00 A3003 RMK A01 T00951002  RH  051%=      5-min Rain = 0
KES1 171119Z 18006KT 09/M00 A3003 RMK A01 T00941002  RH  051%=      5-min Rain = 0
KES1 171120Z 17007KT 09/M00 A3003 RMK A01 T00941002  RH  051%=      5-min Rain = 0
KES1 171121Z 17007KT 09/M00 A3003 RMK A01 T00931002  RH  051%=      5-min Rain = 0
KES1 171122Z 17007KT 09/M00 A3003 RMK A01 T00931002  RH  051%=      5-min Rain = 0
KES1 171123Z 18006KT 09/M00 A3003 RMK A01 T00921002  RH  052%=      5-min Rain = 0
KES1 171124Z 18007KT 09/M00 A3003 RMK A01 T00911002  RH  052%=      5-min Rain = 0
KES1 171125Z 18006KT 09/M00 A3003 RMK A01 T00911002  RH  052%=      5-min Rain = 0
KES1 171126Z 18006KT 09/M00 A3003 RMK A01 T00911002  RH  052%=      5-min Rain = 0
KES1 171127Z 18006KT 09/M00 A3003 RMK A01 T00901002  RH  052%=      5-min Rain = 0
KES1 171128Z 18005KT 09/M00 A3003 RMK A01 T00891002  RH  053%=      5-min Rain = 0
KES1 171129Z 18006KT 09/M00 A3003 RMK A01 T00871002  RH  053%=      5-min Rain = 0
KES1 171130Z 18006KT 09/M00 A3003 RMK A01 T00861002  RH  054%=      5-min Rain = 0
KES1 171131Z 18006KT 09/M00 A3003 RMK A01 T00861002  RH  054%=      5-min Rain = 0
KES1 171132Z 18006KT 09/M00 A3003 RMK A01 T00861002  RH  054%=      5-min Rain = 0
KES1 171133Z 18006KT 09/M00 A3003 RMK A01 T00861002  RH  054%=      5-min Rain = 0
KES1 171134Z 18006KT 09/M00 A3003 RMK A01 T00851002  RH  055%=      5-min Rain = 0
KES1 171135Z 18007KT 08/M00 A3003 RMK A01 T00841002  RH  055%=      5-min Rain = 0
KES1 171136Z 18006KT 08/M00 A3003 RMK A01 T00841002  RH  055%=      5-min Rain = 0
KES1 171137Z 18006KT 08/M00 A3003 RMK A01 T00841002  RH  055%=      5-min Rain = 0
KES1 171138Z 18007KT 08/M00 A3003 RMK A01 T00831002  RH  055%=      5-min Rain = 0
KES1 171139Z 18007KT 08/M00 A3003 RMK A01 T00831002  RH  055%=      5-min Rain = 0
KES1 171140Z 18006KT 08/M00 A3003 RMK A01 T00831002  RH  055%=      5-min Rain = 0
KES1 171141Z 18007KT 08/M00 A3003 RMK A01 T00831002  RH  055%=      5-min Rain = 0
KES1 171142Z 18005KT 08/M00 A3003 RMK A01 T00821001  RH  056%=      5-min Rain = 0
KES1 171143Z 18006KT 08/M00 A3003 RMK A01 T00811002  RH  056%=      5-min Rain = 0
KES1 171144Z 19006KT 08/M00 A3003 RMK A01 T00811001  RH  056%=      5-min Rain = 0
KES1 171145Z 18006KT 08/M00 A3003 RMK A01 T00801001  RH  056%=      5-min Rain = 0
KES1 171146Z 18006KT 08/M00 A3003 RMK A01 T00801001  RH  056%=      5-min Rain = 0
KES1 171147Z 18006KT 08/M00 A3003 RMK A01 T00801002  RH  056%=      5-min Rain = 0
KES1 171148Z 18006KT 08/M00 A3003 RMK A01 T00811002  RH  056%=      5-min Rain = 0
KES1 171149Z 18006KT 08/M00 A3003 RMK A01 T00821002  RH  056%=      5-min Rain = 0
KES1 171150Z 18007KT 08/M00 A3003 RMK A01 T00821002  RH  055%=      5-min Rain = 0
KES1 171151Z 18006KT 08/M00 A3003 RMK A01 T00831002  RH  055%=      5-min Rain = 0
KES1 171152Z 17008KT 08/M00 A3003 RMK A01 T00831002  RH  055%=      5-min Rain = 0
KES1 171153Z 17008KT 08/M00 A3003 RMK A01 T00821002  RH  055%=      5-min Rain = 0
KES1 171154Z 17007KT 08/M00 A3003 RMK A01 T00811001  RH  056%=      5-min Rain = 0
KES1 171155Z 17007KT 08/M00 A3003 RMK A01 T00791002  RH  056%=      5-min Rain = 0
KES1 171156Z 17007KT 08/M00 A3003 RMK A01 T00791002  RH  057%=      5-min Rain = 0
KES1 171157Z 17008KT 08/M00 A3003 RMK A01 T00791002  RH  057%=      5-min Rain = 0
KES1 171158Z 18008KT 08/M00 A3003 RMK A01 T00791002  RH  057%=      5-min Rain = 0
KES1 171159Z 17009KT 08/M00 A3003 RMK A01 T00801001  RH  057%=      5-min Rain = 0
KES1 171200Z 17008KT 08/M00 A3003 RMK A01 T00801002  RH  056%=      5-min Rain = 0
KES1 171201Z 18008KT 08/M00 A3002 RMK A01 T00811002  RH  056%=      5-min Rain = 0
KES1 171202Z 17008KT 08/M00 A3002 RMK A01 T00811002  RH  056%=      5-min Rain = 0
KES1 171203Z 17008KT 08/M00 A3002 RMK A01 T00821002  RH  056%=      5-min Rain = 0
KES1 171204Z 17007KT 08/M00 A3002 RMK A01 T00821001  RH  056%=      5-min Rain = 0
KES1 171205Z 18007KT 08/M00 A3002 RMK A01 T00811001  RH  056%=      5-min Rain = 0
KES1 171206Z 17007KT 08/M00 A3002 RMK A01 T00801001  RH  056%=      5-min Rain = 0
KES1 171207Z 17007KT 08/M00 A3002 RMK A01 T00801001  RH  056%=      5-min Rain = 0
KES1 171208Z 17008KT 08/M00 A3002 RMK A01 T00791001  RH  057%=      5-min Rain = 0
KES1 171209Z 17008KT 08/M00 A3003 RMK A01 T00781001  RH  057%=      5-min Rain = 0
KES1 171210Z 17008KT 08/00 A3003 RMK A01 T007700-0  RH  058%=      5-min Rain = 0
KES1 171211Z 17008KT 07/M00 A3003 RMK A01 T00741001  RH  059%=      5-min Rain = 0
KES1 171212Z 16008KT 07/00 A3003 RMK A01 T007200-0  RH  060%=      5-min Rain = 0
KES1 171213Z 16008KT 07/00 A3003 RMK A01 T007000-0  RH  061%=      5-min Rain = 0
KES1 171214Z 16009KT 07/00 A3003 RMK A01 T006900-0  RH  061%=      5-min Rain = 0
KES1 171215Z 17008KT 07/00 A3003 RMK A01 T006900-0  RH  061%=      5-min Rain = 0
KES1 171216Z 17008KT 07/00 A3003 RMK A01 T006900-0  RH  061%=      5-min Rain = 0
KES1 171217Z 17008KT 07/00 A3003 RMK A01 T00700000  RH  061%=      5-min Rain = 0
KES1 171218Z 17008KT 07/00 A3003 RMK A01 T007000-0  RH  061%=      5-min Rain = 0
KES1 171219Z 17008KT 07/00 A3003 RMK A01 T007000-0  RH  061%=      5-min Rain = 0
KES1 171220Z 17008KT 07/00 A3003 RMK A01 T007000-0  RH  061%=      5-min Rain = 0
KES1 171221Z 17009KT 07/00 A3003 RMK A01 T00710000  RH  061%=      5-min Rain = 0
KES1 171222Z 18008KT 07/00 A3003 RMK A01 T007100-0  RH  061%=      5-min Rain = 0
KES1 171223Z 18008KT 07/00 A3003 RMK A01 T00720000  RH  060%=      5-min Rain = 0
KES1 171224Z 17008KT 07/00 A3003 RMK A01 T007100-0  RH  060%=      5-min Rain = 0
KES1 171225Z 18008KT 07/00 A3003 RMK A01 T00710000  RH  061%=      5-min Rain = 0
KES1 171226Z 18009KT 07/00 A3003 RMK A01 T00700000  RH  061%=      5-min Rain = 0
KES1 171227Z 18009KT 07/00 A3003 RMK A01 T00700000  RH  061%=      5-min Rain = 0
KES1 171228Z 18009KT 07/00 A3003 RMK A01 T00690000  RH  062%=      5-min Rain = 0
KES1 171229Z 18009KT 07/00 A3003 RMK A01 T00690000  RH  062%=      5-min Rain = 0
KES1 171230Z 18008KT 07/00 A3003 RMK A01 T00690001  RH  062%=      5-min Rain = 0
KES1 171231Z 18008KT 07/00 A3003 RMK A01 T00680000  RH  062%=      5-min Rain = 0
KES1 171232Z 18008KT 07/00 A3003 RMK A01 T00670000  RH  062%=      5-min Rain = 0
KES1 171233Z 18009KT 07/00 A3003 RMK A01 T00680000  RH  062%=      5-min Rain = 0
KES1 171234Z 19009KT 07/00 A3003 RMK A01 T006800-0  RH  062%=      5-min Rain = 0
KES1 171235Z 18009KT 07/00 A3003 RMK A01 T006800-0  RH  062%=      5-min Rain = 0
KES1 171236Z 18009KT 07/00 A3003 RMK A01 T006800-0  RH  061%=      5-min Rain = 0
KES1 171237Z 19008KT 07/00 A3003 RMK A01 T006900-0  RH  061%=      5-min Rain = 0
KES1 171238Z 18009KT 07/00 A3003 RMK A01 T006900-0  RH  061%=      5-min Rain = 0
KES1 171239Z 18009KT 07/00 A3003 RMK A01 T006900-0  RH  061%=      5-min Rain = 0
KES1 171240Z 18009KT 07/M00 A3003 RMK A01 T00691001  RH  061%=      5-min Rain = 0
KES1 171241Z 18009KT 07/M00 A3003 RMK A01 T00701001  RH  061%=      5-min Rain = 0
KES1 171242Z 18009KT 07/M00 A3003 RMK A01 T00701001  RH  061%=      5-min Rain = 0
KES1 171243Z 18009KT 07/M00 A3003 RMK A01 T00701001  RH  060%=      5-min Rain = 0
KES1 171244Z 18009KT 07/M00 A3003 RMK A01 T00711001  RH  060%=      5-min Rain = 0
KES1 171245Z 18008KT 07/M00 A3003 RMK A01 T00711001  RH  060%=      5-min Rain = 0
KES1 171246Z 18008KT 07/M00 A3003 RMK A01 T00721001  RH  060%=      5-min Rain = 0
KES1 171247Z 18009KT 07/M00 A3003 RMK A01 T00721001  RH  060%=      5-min Rain = 0
KES1 171248Z 18007KT 07/M00 A3003 RMK A01 T00721001  RH  060%=      5-min Rain = 0
KES1 171249Z 18008KT 07/M00 A3003 RMK A01 T00721001  RH  060%=      5-min Rain = 0
KES1 171250Z 18009KT 07/M00 A3003 RMK A01 T00721001  RH  060%=      5-min Rain = 0
KES1 171251Z 19008KT 07/M00 A3003 RMK A01 T00731001  RH  060%=      5-min Rain = 0
KES1 171252Z 19007KT 07/M00 A3003 RMK A01 T00731001  RH  059%=      5-min Rain = 0
KES1 171253Z 19007KT 07/M00 A3003 RMK A01 T00741001  RH  059%=      5-min Rain = 0
KES1 171254Z 19007KT 07/M00 A3003 RMK A01 T00741001  RH  059%=      5-min Rain = 0
KES1 171255Z 20006KT 07/M00 A3003 RMK A01 T00741001  RH  059%=      5-min Rain = 0
KES1 171256Z 20007KT 07/M00 A3003 RMK A01 T00741001  RH  059%=      5-min Rain = 0
KES1 171257Z 20006KT 07/M00 A3003 RMK A01 T00741001  RH  059%=      5-min Rain = 0
KES1 171258Z 20006KT 07/M00 A3003 RMK A01 T00731001  RH  059%=      5-min Rain = 0
KES1 171259Z 20006KT 07/M00 A3003 RMK A01 T00721001  RH  060%=      5-min Rain = 0
KES1 171300Z 21006KT 07/M00 A3003 RMK A01 T00711001  RH  060%=      5-min Rain = 0
KES1 171301Z 21005KT 07/M00 A3003 RMK A01 T00701001  RH  060%=      5-min Rain = 0
KES1 171302Z 21005KT 07/M00 A3003 RMK A01 T00691001  RH  061%=      5-min Rain = 0
KES1 171303Z 20006KT 07/M00 A3003 RMK A01 T00681001  RH  061%=      5-min Rain = 0
KES1 171304Z 20006KT 07/M00 A3003 RMK A01 T00671001  RH  062%=      5-min Rain = 0
KES1 171305Z 19006KT 07/M00 A3003 RMK A01 T00671001  RH  062%=      5-min Rain = 0
KES1 171306Z 19007KT 07/M00 A3003 RMK A01 T00671001  RH  062%=      5-min Rain = 0
KES1 171307Z 19007KT 07/M00 A3003 RMK A01 T00671001  RH  062%=      5-min Rain = 0
KES1 171308Z 19007KT 07/M00 A3003 RMK A01 T00681001  RH  061%=      5-min Rain = 0
KES1 171309Z 19007KT 07/M00 A3003 RMK A01 T00691001  RH  061%=      5-min Rain = 0
KES1 171310Z 19007KT 07/M00 A3003 RMK A01 T00691001  RH  061%=      5-min Rain = 0
KES1 171311Z 18007KT 07/M00 A3003 RMK A01 T00701001  RH  061%=      5-min Rain = 0
KES1 171312Z 19009KT 07/M00 A3003 RMK A01 T00721001  RH  060%=      5-min Rain = 0
KES1 171313Z 19009KT 07/M00 A3003 RMK A01 T00741001  RH  059%=      5-min Rain = 0
KES1 171314Z 19008KT 08/M00 A3003 RMK A01 T00751001  RH  058%=      5-min Rain = 0
KES1 171315Z 19008KT 08/M00 A3003 RMK A01 T00771001  RH  058%=      5-min Rain = 0
KES1 171316Z 19008KT 08/M00 A3003 RMK A01 T00781001  RH  057%=      5-min Rain = 0
KES1 171317Z 19008KT 08/M00 A3003 RMK A01 T00801001  RH  057%=      5-min Rain = 0
KES1 171318Z 19008KT 08/M00 A3003 RMK A01 T00811001  RH  056%=      5-min Rain = 0
KES1 171319Z 19008KT 08/M00 A3003 RMK A01 T00811001  RH  056%=      5-min Rain = 0
KES1 171320Z 19009KT 08/M00 A3003 RMK A01 T00821001  RH  056%=      5-min Rain = 0
KES1 171321Z 19009KT 08/M00 A3003 RMK A01 T00831001  RH  056%=      5-min Rain = 0
KES1 171322Z 19008KT 08/M00 A3003 RMK A01 T00831001  RH  055%=      5-min Rain = 0
KES1 171323Z 18008KT 08/M00 A3003 RMK A01 T00841001  RH  055%=      5-min Rain = 0
KES1 171324Z 19008KT 09/M00 A3003 RMK A01 T00851001  RH  055%=      5-min Rain = 0
KES1 171325Z 18008KT 09/M00 A3003 RMK A01 T00851001  RH  055%=      5-min Rain = 0
KES1 171326Z 18008KT 09/M00 A3003 RMK A01 T00861001  RH  055%=      5-min Rain = 0
KES1 171327Z 19008KT 09/00 A3003 RMK A01 T008600-0  RH  054%=      5-min Rain = 0
KES1 171328Z 19007KT 09/00 A3003 RMK A01 T008700-0  RH  054%=      5-min Rain = 0
KES1 171329Z 19008KT 09/M00 A3003 RMK A01 T00881001  RH  054%=      5-min Rain = 0
KES1 171330Z 19007KT 09/M00 A3003 RMK A01 T00881001  RH  054%=      5-min Rain = 0
KES1 171331Z 19008KT 09/00 A3003 RMK A01 T008800-0  RH  054%=      5-min Rain = 0
KES1 171332Z 19007KT 09/00 A3003 RMK A01 T008900-0  RH  054%=      5-min Rain = 0
KES1 171333Z 19007KT 09/00 A3003 RMK A01 T009000-0  RH  053%=      5-min Rain = 0
KES1 171334Z 19008KT 09/M00 A3002 RMK A01 T00901001  RH  053%=      5-min Rain = 0
KES1 171335Z 18007KT 09/00 A3002 RMK A01 T009200-0  RH  052%=      5-min Rain = 0
KES1 171336Z 19008KT 09/00 A3002 RMK A01 T009300-0  RH  052%=      5-min Rain = 0
KES1 171337Z 18009KT 10/00 A3002 RMK A01 T00950000  RH  052%=      5-min Rain = 0
KES1 171338Z 19009KT 10/00 A3002 RMK A01 T009700-0  RH  051%=      5-min Rain = 0
KES1 171339Z 18009KT 10/00 A3002 RMK A01 T00990000  RH  050%=      5-min Rain = 0
KES1 171340Z 19008KT 10/00 A3002 RMK A01 T01000000  RH  050%=      5-min Rain = 0
KES1 171341Z 18008KT 10/00 A3002 RMK A01 T01010000  RH  049%=      5-min Rain = 0
KES1 171342Z 19009KT 10/00 A3002 RMK A01 T010300-0  RH  049%=      5-min Rain = 0
KES1 171343Z 19009KT 10/00 A3002 RMK A01 T010400-0  RH  049%=      5-min Rain = 0
KES1 171344Z 19009KT 11/00 A3002 RMK A01 T010500-0  RH  048%=      5-min Rain = 0
KES1 171345Z 19009KT 11/00 A3002 RMK A01 T01060000  RH  048%=      5-min Rain = 0
KES1 171346Z 19008KT 11/M00 A3002 RMK A01 T01071001  RH  047%=      5-min Rain = 0
KES1 171347Z 20009KT 11/M00 A3002 RMK A01 T01091001  RH  047%=      5-min Rain = 0
KES1 171348Z 21007KT 11/00 A3003 RMK A01 T011100-0  RH  046%=      5-min Rain = 0
KES1 171349Z 20008KT 11/00 A3003 RMK A01 T01110001  RH  046%=      5-min Rain = 0
KES1 171350Z 20006KT 11/00 A3003 RMK A01 T01110002  RH  047%=      5-min Rain = 0
KES1 171351Z 20008KT 11/00 A3003 RMK A01 T01100003  RH  047%=      5-min Rain = 0
KES1 171352Z 20006KT 11/00 A3003 RMK A01 T01090002  RH  048%=      5-min Rain = 0
KES1 171353Z 20007KT 11/00 A3003 RMK A01 T01090004  RH  048%=      5-min Rain = 0
KES1 171354Z 20007KT 11/00 A3003 RMK A01 T01080004  RH  048%=      5-min Rain = 0
KES1 171355Z 20007KT 11/00 A3003 RMK A01 T01070004  RH  049%=      5-min Rain = 0
KES1 171356Z 20006KT 11/01 A3003 RMK A01 T01070005  RH  049%=      5-min Rain = 0
KES1 171357Z 20006KT 11/01 A3003 RMK A01 T01070006  RH  050%=      5-min Rain = 0
KES1 171358Z 20007KT 11/01 A3003 RMK A01 T01070006  RH  050%=      5-min Rain = 0
KES1 171359Z 20007KT 11/01 A3003 RMK A01 T01070006  RH  050%=      5-min Rain = 0
KES1 171400Z 19007KT 11/01 A3003 RMK A01 T01080006  RH  049%=      5-min Rain = 0
KES1 171401Z 20006KT 11/01 A3003 RMK A01 T01100006  RH  049%=      5-min Rain = 0
KES1 171402Z 20007KT 11/01 A3003 RMK A01 T01110007  RH  049%=      5-min Rain = 0
KES1 171403Z 19008KT 11/01 A3003 RMK A01 T01120007  RH  048%=      5-min Rain = 0
KES1 171404Z 20007KT 11/01 A3003 RMK A01 T01130007  RH  048%=      5-min Rain = 0
KES1 171405Z 20008KT 11/01 A3003 RMK A01 T01140006  RH  047%=      5-min Rain = 0
KES1 171406Z 19009KT 12/01 A3003 RMK A01 T01160006  RH  047%=      5-min Rain = 0
KES1 171407Z 20007KT 12/01 A3003 RMK A01 T01170006  RH  046%=      5-min Rain = 0
KES1 171408Z 19007KT 12/01 A3003 RMK A01 T01180007  RH  046%=      5-min Rain = 0
KES1 171409Z 20007KT 12/01 A3003 RMK A01 T01190007  RH  046%=      5-min Rain = 0
KES1 171410Z 19009KT 12/01 A3003 RMK A01 T01200007  RH  046%=      5-min Rain = 0
KES1 171411Z 20009KT 12/01 A3003 RMK A01 T01210005  RH  045%=      5-min Rain = 0
KES1 171412Z 19007KT 12/01 A3003 RMK A01 T01220006  RH  045%=      5-min Rain = 0
KES1 171413Z 18008KT 12/01 A3003 RMK A01 T01230007  RH  045%=      5-min Rain = 0
KES1 171414Z 20009KT 12/01 A3003 RMK A01 T01240007  RH  045%=      5-min Rain = 0
KES1 171415Z 19007KT 12/01 A3003 RMK A01 T01240007  RH  044%=      5-min Rain = 0
KES1 171416Z 19007KT 13/01 A3003 RMK A01 T01260008  RH  045%=      5-min Rain = 0
KES1 171417Z 19007KT 13/01 A3003 RMK A01 T01270008  RH  044%=      5-min Rain = 0
KES1 171418Z 19007KT 13/01 A3003 RMK A01 T01270010  RH  045%=      5-min Rain = 0
KES1 171419Z 19009KT 13/01 A3003 RMK A01 T01290010  RH  044%=      5-min Rain = 0
KES1 171420Z 19007KT 13/01 A3003 RMK A01 T01290009  RH  044%=      5-min Rain = 0
KES1 171421Z 19006KT 13/01 A3003 RMK A01 T01300010  RH  044%=      5-min Rain = 0
KES1 171422Z 19011KT 13/01 A3003 RMK A01 T01310010  RH  043%=      5-min Rain = 0
KES1 171423Z 19009KT 13/01 A3003 RMK A01 T01320008  RH  043%=      5-min Rain = 0
KES1 171424Z 19010KT 13/01 A3003 RMK A01 T01340010  RH  043%=      5-min Rain = 0
KES1 171425Z 19011KT 14/01 A3003 RMK A01 T01350009  RH  042%=      5-min Rain = 0
KES1 171426Z 19009KT 14/01 A3003 RMK A01 T01360008  RH  042%=      5-min Rain = 0
KES1 171427Z 19010KT 14/01 A3003 RMK A01 T01360007  RH  041%=      5-min Rain = 0
KES1 171428Z 19009KT 14/01 A3003 RMK A01 T01370008  RH  041%=      5-min Rain = 0
KES1 171429Z 19010KT 14/01 A3003 RMK A01 T01380006  RH  041%=      5-min Rain = 0
KES1 171430Z 19010G15KT 14/01 A3003 RMK A01 T01380007  RH  041%=      5-min Rain = 0
KES1 171431Z 19011KT 14/00 A3003 RMK A01 T01390004  RH  040%=      5-min Rain = 0
KES1 171432Z 19011KT 14/00 A3003 RMK A01 T01390004  RH  040%=      5-min Rain = 0
KES1 171433Z 19010KT 14/01 A3003 RMK A01 T01390005  RH  040%=      5-min Rain = 0
KES1 171434Z 19010KT 14/01 A3003 RMK A01 T01400005  RH  040%=      5-min Rain = 0
KES1 171435Z 19009KT 14/01 A3003 RMK A01 T01400005  RH  040%=      5-min Rain = 0
KES1 171436Z 19011KT 14/01 A3003 RMK A01 T01400006  RH  040%=      5-min Rain = 0
KES1 171437Z 20010KT 14/01 A3003 RMK A01 T01400006  RH  040%=      5-min Rain = 0
KES1 171438Z 19010KT 14/01 A3003 RMK A01 T01400006  RH  040%=      5-min Rain = 0
KES1 171439Z 19010KT 14/01 A3003 RMK A01 T01400005  RH  040%=      5-min Rain = 0
KES1 171440Z 19010KT 14/01 A3003 RMK A01 T01400006  RH  040%=      5-min Rain = 0
KES1 171441Z 19008KT 14/01 A3003 RMK A01 T01400007  RH  040%=      5-min Rain = 0
KES1 171442Z 19009KT 14/01 A3003 RMK A01 T01420008  RH  040%=      5-min Rain = 0
KES1 171443Z 18008KT 14/01 A3003 RMK A01 T01430008  RH  040%=      5-min Rain = 0
KES1 171444Z 19007KT 14/01 A3003 RMK A01 T01440009  RH  040%=      5-min Rain = 0
KES1 171445Z 20007KT 14/01 A3003 RMK A01 T01440009  RH  040%=      5-min Rain = 0
KES1 171446Z 19007KT 15/01 A3003 RMK A01 T01450009  RH  040%=      5-min Rain = 0
KES1 171447Z 20006KT 15/01 A3003 RMK A01 T01460010  RH  040%=      5-min Rain = 0
KES1 171448Z 19006KT 15/01 A3003 RMK A01 T01480011  RH  040%=      5-min Rain = 0
KES1 171449Z 19008KT 15/01 A3003 RMK A01 T01490011  RH  039%=      5-min Rain = 0
KES1 171450Z 20006KT 15/01 A3003 RMK A01 T01490010  RH  039%=      5-min Rain = 0
KES1 171451Z 20007KT 15/01 A3003 RMK A01 T01500010  RH  039%=      5-min Rain = 0
KES1 171452Z 20009KT 15/01 A3003 RMK A01 T01500008  RH  038%=      5-min Rain = 0
KES1 171453Z 19006KT 15/01 A3003 RMK A01 T01500009  RH  038%=      5-min Rain = 0
KES1 171454Z 19007KT 15/01 A3003 RMK A01 T01520011  RH  038%=      5-min Rain = 0
KES1 171455Z 20006KT 15/01 A3003 RMK A01 T01530011  RH  038%=      5-min Rain = 0
KES1 171456Z 20007KT 15/01 A3003 RMK A01 T01540012  RH  038%=      5-min Rain = 0
KES1 171457Z 19007KT 15/01 A3003 RMK A01 T01540010  RH  038%=      5-min Rain = 0
KES1 171458Z 20008KT 15/01 A3003 RMK A01 T01530011  RH  038%=      5-min Rain = 0
KES1 171459Z 20007KT 15/01 A3003 RMK A01 T01530011  RH  038%=      5-min Rain = 0
KES1 171500Z 20007KT 15/01 A3003 RMK A01 T01540011  RH  038%=      5-min Rain = 0
KES1 171501Z 19008KT 16/01 A3003 RMK A01 T01550011  RH  038%=      5-min Rain = 0
KES1 171502Z 19007KT 16/01 A3003 RMK A01 T01560012  RH  038%=      5-min Rain = 0
KES1 171503Z 19007KT 16/01 A3003 RMK A01 T01570013  RH  038%=      5-min Rain = 0
KES1 171504Z 20006KT 16/02 A3003 RMK A01 T01590016  RH  038%=      5-min Rain = 0
KES1 171505Z 21007KT 16/02 A3003 RMK A01 T01620015  RH  037%=      5-min Rain = 0
KES1 171506Z 20006KT 16/02 A3003 RMK A01 T01620015  RH  037%=      5-min Rain = 0
KES1 171507Z 19008KT 16/01 A3003 RMK A01 T01620014  RH  037%=      5-min Rain = 0
KES1 171508Z 20007KT 16/01 A3003 RMK A01 T01620014  RH  037%=      5-min Rain = 0
KES1 171509Z 19008KT 16/01 A3003 RMK A01 T01620014  RH  037%=      5-min Rain = 0
KES1 171510Z 20007KT 16/01 A3003 RMK A01 T01630014  RH  036%=      5-min Rain = 0
KES1 171511Z 20008KT 16/01 A3002 RMK A01 T01640014  RH  036%=      5-min Rain = 0
KES1 171512Z 20007KT 17/01 A3002 RMK A01 T01650014  RH  036%=      5-min Rain = 0
KES1 171513Z 20007KT 17/02 A3002 RMK A01 T01670015  RH  036%=      5-min Rain = 0
KES1 171514Z 19008KT 17/01 A3002 RMK A01 T01670014  RH  035%=      5-min Rain = 0
KES1 171515Z 19009KT 17/02 A3002 RMK A01 T01680016  RH  036%=      5-min Rain = 0
KES1 171516Z 19008KT 17/01 A3002 RMK A01 T01680014  RH  035%=      5-min Rain = 0
KES1 171517Z 18008KT 17/02 A3002 RMK A01 T01670015  RH  036%=      5-min Rain = 0
KES1 171518Z 19008KT 17/02 A3002 RMK A01 T01690017  RH  036%=      5-min Rain = 0
KES1 171519Z 20006KT 17/02 A3002 RMK A01 T01710016  RH  035%=      5-min Rain = 0
KES1 171520Z 20008KT 17/02 A3002 RMK A01 T01730016  RH  035%=      5-min Rain = 0
KES1 171521Z 20006KT 18/02 A3002 RMK A01 T01750016  RH  034%=      5-min Rain = 0
KES1 171522Z 19007KT 18/02 A3002 RMK A01 T01780019  RH  034%=      5-min Rain = 0
KES1 171523Z 19008KT 18/02 A3002 RMK A01 T01790019  RH  034%=      5-min Rain = 0
KES1 171524Z 20008KT 18/02 A3002 RMK A01 T01790016  RH  033%=      5-min Rain = 0
KES1 171525Z 20007KT 18/01 A3002 RMK A01 T01800012  RH  032%=      5-min Rain = 0
KES1 171526Z 21010KT 18/01 A3002 RMK A01 T01800012  RH  032%=      5-min Rain = 0
KES1 171527Z 21008KT 18/01 A3002 RMK A01 T01800011  RH  032%=      5-min Rain = 0
KES1 171528Z 21009KT 18/01 A3002 RMK A01 T01810011  RH  032%=      5-min Rain = 0
KES1 171529Z 21008KT 18/01 A3002 RMK A01 T01810013  RH  032%=      5-min Rain = 0
KES1 171530Z 20008KT 18/01 A3002 RMK A01 T01820013  RH  032%=      5-min Rain = 0
KES1 171531Z 20008G13KT 18/01 A3002 RMK A01 T01840013  RH  032%=      5-min Rain = 0
KES1 171532Z 20009KT 19/01 A3002 RMK A01 T01850013  RH  032%=      5-min Rain = 0
KES1 171533Z 20007KT 19/01 A3002 RMK A01 T01850014  RH  032%=      5-min Rain = 0
KES1 171534Z 22009KT 19/02 A3002 RMK A01 T01870017  RH  032%=      5-min Rain = 0
KES1 171535Z 21006KT 19/02 A3002 RMK A01 T01880018  RH  032%=      5-min Rain = 0
KES1 171536Z 21006KT 19/02 A3002 RMK A01 T01900021  RH  032%=      5-min Rain = 0
KES1 171537Z 22007KT 19/02 A3002 RMK A01 T01920020  RH  032%=      5-min Rain = 0
KES1 171538Z 22009KT 19/02 A3002 RMK A01 T01920021  RH  032%=      5-min Rain = 0
KES1 171539Z 21011KT 19/02 A3002 RMK A01 T01910020  RH  032%=      5-min Rain = 0
KES1 171540Z 21009KT 19/02 A3002 RMK A01 T01900021  RH  032%=      5-min Rain = 0
KES1 171541Z 21008KT 19/02 A3002 RMK A01 T01900024  RH  033%=      5-min Rain = 0
KES1 171542Z 22009KT 19/03 A3002 RMK A01 T01910028  RH  034%=      5-min Rain = 0
KES1 171543Z 22010KT 19/03 A3002 RMK A01 T01920026  RH  033%=      5-min Rain = 0
KES1 171544Z 21010KT 19/03 A3002 RMK A01 T01910026  RH  033%=      5-min Rain = 0
KES1 171545Z 21010KT 19/03 A3002 RMK A01 T01920026  RH  033%=      5-min Rain = 0
KES1 171546Z 22010KT 19/02 A3002 RMK A01 T01920024  RH  033%=      5-min Rain = 0
KES1 171547Z 23009KT 19/03 A3002 RMK A01 T01910026  RH  033%=      5-min Rain = 0
KES1 171548Z 22009KT 19/03 A3002 RMK A01 T01910026  RH  033%=      5-min Rain = 0
KES1 171549Z 22009KT 19/03 A3002 RMK A01 T01920027  RH  033%=      5-min Rain = 0
KES1 171550Z 22009KT 19/03 A3001 RMK A01 T01920027  RH  033%=      5-min Rain = 0
KES1 171551Z 23007KT 19/03 A3001 RMK A01 T01930029  RH  034%=      5-min Rain = 0
KES1 171552Z 21006KT 19/03 A3001 RMK A01 T01940029  RH  033%=      5-min Rain = 0
KES1 171553Z 22008KT 20/03 A3001 RMK A01 T01950031  RH  034%=      5-min Rain = 0
KES1 171554Z 22010KT 20/03 A3001 RMK A01 T01960030  RH  033%=      5-min Rain = 0
KES1 171555Z 22008KT 20/03 A3001 RMK A01 T01950029  RH  033%=      5-min Rain = 0
KES1 171556Z 22008KT 20/03 A3001 RMK A01 T01950030  RH  033%=      5-min Rain = 0
KES1 171557Z 24006KT 20/03 A3001 RMK A01 T01960031  RH  033%=      5-min Rain = 0
KES1 171558Z 23008KT 20/03 A3001 RMK A01 T01980032  RH  033%=      5-min Rain = 0
KES1 171559Z 23006KT 20/03 A3001 RMK A01 T01990032  RH  033%=      5-min Rain = 0
KES1 171600Z 26007KT 20/03 A3001 RMK A01 T01990032  RH  033%=      5-min Rain = 0
KES1 171601Z 22006KT 20/03 A3001 RMK A01 T02000033  RH  033%=      5-min Rain = 0
KES1 171602Z 22006KT 20/03 A3001 RMK A01 T02020034  RH  033%=      5-min Rain = 0
KES1 171603Z 23009KT 20/04 A3001 RMK A01 T02030035  RH  033%=      5-min Rain = 0
KES1 171604Z 23005KT 20/03 A3001 RMK A01 T02040033  RH  032%=      5-min Rain = 0
KES1 171605Z 23005KT 20/04 A3001 RMK A01 T02040035  RH  033%=      5-min Rain = 0
KES1 171606Z 22006KT 21/04 A3001 RMK A01 T02050036  RH  033%=      5-min Rain = 0
KES1 171607Z 21007KT 21/03 A3001 RMK A01 T02060032  RH  032%=      5-min Rain = 0
KES1 171608Z 23010KT 21/03 A3001 RMK A01 T02050031  RH  032%=      5-min Rain = 0
KES1 171609Z 24008KT 20/03 A3001 RMK A01 T02040030  RH  032%=      5-min Rain = 0
KES1 171610Z 25011KT 20/03 A3001 RMK A01 T02040032  RH  032%=      5-min Rain = 0
KES1 171611Z 22008KT 21/03 A3001 RMK A01 T02050031  RH  032%=      5-min Rain = 0
KES1 171612Z 20006KT 21/03 A3001 RMK A01 T02060033  RH  032%=      5-min Rain = 0
KES1 171613Z 21007KT 21/03 A3001 RMK A01 T02070034  RH  032%=      5-min Rain = 0
KES1 171614Z 21006KT 21/03 A3001 RMK A01 T02080032  RH  031%=      5-min Rain = 0
KES1 171615Z 21008KT 21/03 A3001 RMK A01 T02080032  RH  031%=      5-min Rain = 0
KES1 171616Z 22006KT 21/03 A3001 RMK A01 T02080031  RH  031%=      5-min Rain = 0
KES1 171617Z 21005KT 21/04 A3001 RMK A01 T02080035  RH  032%=      5-min Rain = 0
KES1 171618Z 22004KT 21/03 A3001 RMK A01 T02090033  RH  031%=      5-min Rain = 0
KES1 171619Z 22006KT 21/04 A3001 RMK A01 T02110037  RH  032%=      5-min Rain = 0
KES1 171620Z 21007KT 21/03 A3001 RMK A01 T02130034  RH  031%=      5-min Rain = 0
KES1 171621Z 22008KT 22/03 A3001 RMK A01 T02150031  RH  030%=      5-min Rain = 0
KES1 171622Z 21006KT 21/03 A3001 RMK A01 T02130029  RH  030%=      5-min Rain = 0
KES1 171623Z 20009KT 21/03 A3001 RMK A01 T02130032  RH  030%=      5-min Rain = 0
KES1 171624Z 20007KT 21/03 A3001 RMK A01 T02140030  RH  030%=      5-min Rain = 0
KES1 171625Z 23007KT 21/03 A3001 RMK A01 T02140032  RH  030%=      5-min Rain = 0
KES1 171626Z 23008KT 22/03 A3001 RMK A01 T02150028  RH  029%=      5-min Rain = 0
KES1 171627Z 19007KT 22/03 A3001 RMK A01 T02160033  RH  030%=      5-min Rain = 0
KES1 171628Z 19008KT 22/03 A30 RMK A01 T02180031  RH  029%=      5-min Rain = 0
KES1 171629Z 20008KT 22/03 A30 RMK A01 T02190029  RH  029%=      5-min Rain = 0
KES1 171630Z 20008KT 22/03 A30 RMK A01 T02180030  RH  029%=      5-min Rain = 0
KES1 171631Z 20007KT 22/03 A30 RMK A01 T02180029  RH  029%=      5-min Rain = 0
KES1 171632Z 21008KT 22/03 A30 RMK A01 T02180030  RH  029%=      5-min Rain = 0
KES1 171633Z 24007KT 22/03 A30 RMK A01 T02200033  RH  029%=      5-min Rain = 0
KES1 171634Z 23010KT 22/03 A30 RMK A01 T02210029  RH  028%=      5-min Rain = 0
KES1 171635Z 22008KT 22/03 A30 RMK A01 T02200027  RH  028%=      5-min Rain = 0
KES1 171636Z 22006KT 22/03 A30 RMK A01 T02180028  RH  029%=      5-min Rain = 0
KES1 171637Z 23008KT 22/03 A30 RMK A01 T02180030  RH  029%=      5-min Rain = 0
KES1 171638Z 22009KT 22/03 A30 RMK A01 T02190029  RH  029%=      5-min Rain = 0
KES1 171639Z 22007KT 22/03 A30 RMK A01 T02200029  RH  029%=      5-min Rain = 0
KES1 171640Z 22004KT 22/03 A30 RMK A01 T02200030  RH  029%=      5-min Rain = 0
KES1 171641Z 20009KT 22/03 A30 RMK A01 T02230033  RH  029%=      5-min Rain = 0
KES1 171642Z 21007KT 22/03 A30 RMK A01 T02230027  RH  028%=      5-min Rain = 0
KES1 171643Z 21008KT 22/03 A30 RMK A01 T02210028  RH  028%=      5-min Rain = 0
KES1 171644Z 21008KT 22/03 A30 RMK A01 T02220029  RH  028%=      5-min Rain = 0
KES1 171645Z 21010KT 22/03 A30 RMK A01 T02220029  RH  028%=      5-min Rain = 0
KES1 171646Z 21009KT 22/03 A30 RMK A01 T02230026  RH  027%=      5-min Rain = 0
KES1 171647Z 21011KT 22/03 A30 RMK A01 T02220025  RH  027%=      5-min Rain = 0
KES1 171648Z 21010KT 22/03 A30 RMK A01 T02210027  RH  028%=      5-min Rain = 0
KES1 171649Z 20008KT 22/03 A30 RMK A01 T02220026  RH  028%=      5-min Rain = 0
KES1 171650Z 20009KT 22/03 A30 RMK A01 T02220026  RH  028%=      5-min Rain = 0
KES1 171651Z 19008KT 22/03 A30 RMK A01 T02220025  RH  027%=      5-min Rain = 0
KES1 171652Z 20005KT 22/03 A30 RMK A01 T02220027  RH  028%=      5-min Rain = 0
KES1 171653Z 19007KT 22/03 A30 RMK A01 T02240030  RH  028%=      5-min Rain = 0
KES1 171654Z 22007KT 23/03 A30 RMK A01 T02260030  RH  028%=      5-min Rain = 0
KES1 171655Z 22005KT 23/03 A30 RMK A01 T02270032  RH  028%=      5-min Rain = 0
KES1 171656Z 24005KT 23/03 A30 RMK A01 T02270029  RH  027%=      5-min Rain = 0
KES1 171657Z 20006G13KT 23/04 A30 RMK A01 T02280035  RH  028%=      5-min Rain = 0
KES1 171658Z 18009KT 23/03 A2999 RMK A01 T02300029  RH  027%=      5-min Rain = 0
KES1 171659Z 20009KT 23/03 A2999 RMK A01 T02300027  RH  026%=      5-min Rain = 0
KES1 171700Z 19007KT 23/02 A2999 RMK A01 T02270023  RH  026%=      5-min Rain = 0
KES1 171701Z 20007KT 22/03 A2999 RMK A01 T02240025  RH  027%=      5-min Rain = 0
KES1 171702Z 21007KT 22/03 A2999 RMK A01 T02240027  RH  027%=      5-min Rain = 0
KES1 171703Z 20007KT 23/03 A2999 RMK A01 T02250030  RH  028%=      5-min Rain = 0
KES1 171704Z 20008KT 23/03 A2999 RMK A01 T02280030  RH  027%=      5-min Rain = 0
KES1 171705Z 20004KT 23/03 A2999 RMK A01 T02280026  RH  027%=      5-min Rain = 0
KES1 171706Z 19004KT 23/03 A2999 RMK A01 T02260029  RH  027%=      5-min Rain = 0
KES1 171707Z 18009KT 23/03 A2999 RMK A01 T02260032  RH  028%=      5-min Rain = 0
KES1 171708Z 19010KT 23/03 A2999 RMK A01 T02280027  RH  027%=      5-min Rain = 0
KES1 171709Z 19007KT 23/03 A2999 RMK A01 T02280030  RH  027%=      5-min Rain = 0
KES1 171710Z 19008KT 23/03 A2999 RMK A01 T02290027  RH  027%=      5-min Rain = 0
KES1 171711Z 19009KT 23/03 A2999 RMK A01 T02270028  RH  027%=      5-min Rain = 0
KES1 171712Z 19010KT 23/03 A2999 RMK A01 T02270026  RH  027%=      5-min Rain = 0
KES1 171713Z 19009KT 23/03 A2999 RMK A01 T02270028  RH  027%=      5-min Rain = 0
KES1 171714Z 19011KT 23/03 A2999 RMK A01 T02270025  RH  026%=      5-min Rain = 0
KES1 171715Z 20011KT 23/02 A2999 RMK A01 T02270024  RH  026%=      5-min Rain = 0
KES1 171716Z 20011G16KT 23/03 A2999 RMK A01 T02290028  RH  027%=      5-min Rain = 0
KES1 171717Z 19013KT 23/03 A2999 RMK A01 T02310025  RH  026%=      5-min Rain = 0
KES1 171718Z 19011KT 23/02 A2999 RMK A01 T02300023  RH  026%=      5-min Rain = 0
KES1 171719Z 20008KT 23/03 A2999 RMK A01 T02300025  RH  026%=      5-min Rain = 0
KES1 171720Z 20012G17KT 23/03 A2999 RMK A01 T02330025  RH  026%=      5-min Rain = 0
KES1 171721Z 20011KT 23/02 A2998 RMK A01 T02330023  RH  025%=      5-min Rain = 0
KES1 171722Z 21008KT 23/03 A2998 RMK A01 T02330026  RH  026%=      5-min Rain = 0
KES1 171723Z 20010KT 24/03 A2998 RMK A01 T02370027  RH  025%=      5-min Rain = 0
KES1 171724Z 21010KT 24/03 A2998 RMK A01 T02380025  RH  025%=      5-min Rain = 0
KES1 171725Z 20011G16KT 24/03 A2998 RMK A01 T02370025  RH  025%=      5-min Rain = 0
KES1 171726Z 19013KT 24/02 A2998 RMK A01 T02370021  RH  024%=      5-min Rain = 0
KES1 171727Z 20012KT 24/02 A2998 RMK A01 T02350019  RH  024%=      5-min Rain = 0
KES1 171728Z 19011KT 23/02 A2998 RMK A01 T02340020  RH  024%=      5-min Rain = 0
KES1 171729Z 19011KT 24/02 A2998 RMK A01 T02360024  RH  025%=      5-min Rain = 0
KES1 171730Z 21010KT 24/02 A2998 RMK A01 T02390023  RH  024%=      5-min Rain = 0
KES1 171731Z 20009KT 24/02 A2998 RMK A01 T02390022  RH  024%=      5-min Rain = 0
KES1 171732Z 21009KT 24/02 A2998 RMK A01 T02370020  RH  024%=      5-min Rain = 0
KES1 171733Z 20012KT 24/02 A2998 RMK A01 T02370023  RH  025%=      5-min Rain = 0
KES1 171734Z 18012KT 24/02 A2998 RMK A01 T02370024  RH  025%=      5-min Rain = 0
KES1 171735Z 19009KT 24/03 A2998 RMK A01 T02380026  RH  025%=      5-min Rain = 0
KES1 171736Z 19011KT 24/02 A2998 RMK A01 T02400024  RH  024%=      5-min Rain = 0
KES1 171737Z 19008KT 24/02 A2998 RMK A01 T02370023  RH  025%=      5-min Rain = 0
KES1 171738Z 20007KT 24/03 A2998 RMK A01 T02360026  RH  025%=      5-min Rain = 0
KES1 171739Z 19007KT 24/03 A2998 RMK A01 T02380029  RH  026%=      5-min Rain = 0
KES1 171740Z 16010KT 24/03 A2998 RMK A01 T02420032  RH  025%=      5-min Rain = 0
KES1 171741Z 18008KT 24/03 A2998 RMK A01 T02440030  RH  025%=      5-min Rain = 0
KES1 171742Z 19012G17KT 24/03 A2997 RMK A01 T02440031  RH  025%=      5-min Rain = 0
KES1 171743Z 19013KT 24/03 A2997 RMK A01 T02430030  RH  025%=      5-min Rain = 0
KES1 171744Z 18008KT 24/03 A2997 RMK A01 T02420030  RH  025%=      5-min Rain = 0
KES1 171745Z 19010KT 24/03 A2997 RMK A01 T02420034  RH  026%=      5-min Rain = 0
KES1 171746Z 18008KT 24/03 A2997 RMK A01 T02430030  RH  025%=      5-min Rain = 0
KES1 171747Z 17010KT 24/04 A2997 RMK A01 T02430035  RH  026%=      5-min Rain = 0
KES1 171748Z 17008KT 24/03 A2997 RMK A01 T02440032  RH  025%=      5-min Rain = 0
KES1 171749Z 16008KT 25/03 A2997 RMK A01 T02450032  RH  025%=      5-min Rain = 0
KES1 171750Z 17008KT 25/03 A2997 RMK A01 T02450034  RH  025%=      5-min Rain = 0
KES1 171751Z 17008KT 25/03 A2997 RMK A01 T02450034  RH  025%=      5-min Rain = 0
KES1 171752Z 19010KT 25/03 A2997 RMK A01 T02450032  RH  025%=      5-min Rain = 0
KES1 171753Z 18008KT 24/03 A2997 RMK A01 T02440029  RH  025%=      5-min Rain = 0
KES1 171754Z 18005KT 24/03 A2997 RMK A01 T02420029  RH  025%=      5-min Rain = 0
KES1 171755Z 16005G13KT 24/03 A2996 RMK A01 T02410030  RH  025%=      5-min Rain = 0
KES1 171756Z 15012KT 24/03 A2996 RMK A01 T02420031  RH  025%=      5-min Rain = 0
KES1 171757Z 16009KT 24/03 A2996 RMK A01 T02440031  RH  025%=      5-min Rain = 0
KES1 171758Z 17009KT 25/03 A2996 RMK A01 T02450033  RH  025%=      5-min Rain = 0
KES1 171759Z 18006KT 25/03 A2996 RMK A01 T02460031  RH  025%=      5-min Rain = 0
KES1 171800Z 20006KT 25/03 A2996 RMK A01 T02460034  RH  025%=      5-min Rain = 0
KES1 171801Z 17006KT 25/04 A2996 RMK A01 T02470035  RH  025%=      5-min Rain = 0
KES1 171802Z 17008KT 25/03 A2996 RMK A01 T02490033  RH  024%=      5-min Rain = 0
KES1 171803Z 18011KT 25/03 A2996 RMK A01 T02500034  RH  025%=      5-min Rain = 0
KES1 171804Z 19007KT 25/03 A2996 RMK A01 T02490030  RH  024%=      5-min Rain = 0
KES1 171805Z 20007KT 25/03 A2996 RMK A01 T02450030  RH  025%=      5-min Rain = 0
KES1 171806Z 19007KT 24/03 A2996 RMK A01 T02440031  RH  025%=      5-min Rain = 0
KES1 171807Z 16005G10KT 25/03 A2996 RMK A01 T02460033  RH  025%=      5-min Rain = 0
KES1 171808Z 17007G12KT 25/03 A2996 RMK A01 T02490033  RH  025%=      5-min Rain = 0
KES1 171809Z 17011KT 25/03 A2995 RMK A01 T02510034  RH  024%=      5-min Rain = 0
KES1 171810Z 17008KT 25/03 A2995 RMK A01 T02530032  RH  024%=      5-min Rain = 0
KES1 171811Z 17010KT 25/03 A2995 RMK A01 T02530033  RH  024%=      5-min Rain = 0
KES1 171812Z 16010KT 25/03 A2995 RMK A01 T02540032  RH  024%=      5-min Rain = 0
KES1 171813Z 18011KT 25/03 A2995 RMK A01 T02530034  RH  024%=      5-min Rain = 0
KES1 171814Z 19010KT 25/03 A2995 RMK A01 T02520032  RH  024%=      5-min Rain = 0
KES1 171815Z 17010KT 25/03 A2995 RMK A01 T02520031  RH  024%=      5-min Rain = 0
KES1 171816Z 17009KT 25/03 A2995 RMK A01 T02520034  RH  024%=      5-min Rain = 0
KES1 171817Z 15013KT 25/03 A2995 RMK A01 T02540032  RH  024%=      5-min Rain = 0
KES1 171818Z 15011KT 25/03 A2995 RMK A01 T02540032  RH  024%=      5-min Rain = 0
KES1 171819Z 16012KT 26/03 A2995 RMK A01 T02550033  RH  024%=      5-min Rain = 0
KES1 171820Z 18011KT 26/03 A2995 RMK A01 T02560033  RH  024%=      5-min Rain = 0
KES1 171821Z 18010KT 25/03 A2995 RMK A01 T02540031  RH  023%=      5-min Rain = 0
KES1 171822Z 18011KT 25/03 A2995 RMK A01 T02530033  RH  024%=      5-min Rain = 0
KES1 171823Z 16008KT 25/04 A2995 RMK A01 T02540036  RH  024%=      5-min Rain = 0
KES1 171824Z 16009KT 26/03 A2994 RMK A01 T02550034  RH  024%=      5-min Rain = 0
KES1 171825Z 19006KT 26/04 A2994 RMK A01 T02560037  RH  024%=      5-min Rain = 0
KES1 171826Z 16007KT 26/04 A2994 RMK A01 T02590038  RH  024%=      5-min Rain = 0
KES1 171827Z 16008KT 26/04 A2994 RMK A01 T02610038  RH  024%=      5-min Rain = 0
KES1 171828Z 17011G16KT 26/04 A2994 RMK A01 T02630037  RH  023%=      5-min Rain = 0
KES1 171829Z 16012KT 26/03 A2994 RMK A01 T02630032  RH  023%=      5-min Rain = 0
KES1 171830Z 18012KT 26/03 A2994 RMK A01 T02600032  RH  023%=      5-min Rain = 0
KES1 171831Z 19009G14KT 26/03 A2994 RMK A01 T02560030  RH  023%=      5-min Rain = 0
KES1 171832Z 17009KT 26/03 A2994 RMK A01 T02550031  RH  023%=      5-min Rain = 0
KES1 171833Z 16012G18KT 26/04 A2994 RMK A01 T02550035  RH  024%=      5-min Rain = 0
KES1 171834Z 17013KT 26/04 A2994 RMK A01 T02580036  RH  024%=      5-min Rain = 0
KES1 171835Z 19013KT 26/03 A2993 RMK A01 T02600034  RH  023%=      5-min Rain = 0
KES1 171836Z 19009KT 26/03 A2993 RMK A01 T02570033  RH  023%=      5-min Rain = 0
KES1 171837Z 18009KT 26/04 A2993 RMK A01 T02560038  RH  025%=      5-min Rain = 0
KES1 171838Z 17009KT 26/04 A2993 RMK A01 T02590037  RH  024%=      5-min Rain = 0
KES1 171839Z 18008KT 26/04 A2993 RMK A01 T02600039  RH  024%=      5-min Rain = 0
KES1 171840Z 19008KT 26/04 A2993 RMK A01 T02600038  RH  024%=      5-min Rain = 0
KES1 171841Z 19009KT 26/04 A2993 RMK A01 T02610041  RH  024%=      5-min Rain = 0
KES1 171842Z 19010KT 27/04 A2993 RMK A01 T02650044  RH  024%=      5-min Rain = 0
KES1 171843Z 18008KT 27/04 A2993 RMK A01 T02670041  RH  023%=      5-min Rain = 0
KES1 171844Z 17013KT 27/04 A2993 RMK A01 T02660039  RH  023%=      5-min Rain = 0
KES1 171845Z 17012KT 26/04 A2993 RMK A01 T02630038  RH  023%=      5-min Rain = 0
KES1 171846Z 19014G19KT 26/04 A2993 RMK A01 T02620039  RH  024%=      5-min Rain = 0
KES1 171847Z 19009KT 26/04 A2993 RMK A01 T02600038  RH  024%=      5-min Rain = 0
KES1 171848Z 17007KT 26/04 A2993 RMK A01 T02590040  RH  024%=      5-min Rain = 0
KES1 171849Z 18006KT 26/04 A2993 RMK A01 T02610042  RH  024%=      5-min Rain = 0
KES1 171850Z 16011KT 26/04 A2992 RMK A01 T02640042  RH  024%=      5-min Rain = 0
KES1 171851Z 17011KT 26/04 A2992 RMK A01 T02630039  RH  024%=      5-min Rain = 0
KES1 171852Z 15011KT 26/04 A2992 RMK A01 T02610043  RH  025%=      5-min Rain = 0
KES1 171853Z 15010KT 27/05 A2992 RMK A01 T02650046  RH  025%=      5-min Rain = 0
KES1 171854Z 16009KT 27/04 A2992 RMK A01 T02680043  RH  024%=      5-min Rain = 0
KES1 171855Z 16012KT 27/04 A2992 RMK A01 T02670042  RH  023%=      5-min Rain = 0
KES1 171856Z 15010KT 27/04 A2992 RMK A01 T02650041  RH  024%=      5-min Rain = 0
KES1 171857Z 16008KT 27/05 A2992 RMK A01 T02660045  RH  024%=      5-min Rain = 0
KES1 171858Z 14008KT 27/04 A2992 RMK A01 T02690044  RH  024%=      5-min Rain = 0
KES1 171859Z 17011G16KT 27/04 A2992 RMK A01 T02700043  RH  023%=      5-min Rain = 0
KES1 171900Z 17011G16KT 27/05 A2991 RMK A01 T02700046  RH  024%=      5-min Rain = 0
KES1 171901Z 17013KT 27/05 A2991 RMK A01 T02690046  RH  024%=      5-min Rain = 0
KES1 171902Z 18011G16KT 27/05 A2991 RMK A01 T02680046  RH  024%=      5-min Rain = 0
KES1 171903Z 19011KT 27/05 A2991 RMK A01 T02670046  RH  024%=      5-min Rain = 0
KES1 171904Z 18008KT 27/04 A2991 RMK A01 T02660044  RH  024%=      5-min Rain = 0
KES1 171905Z 16010KT 27/05 A2991 RMK A01 T02660047  RH  025%=      5-min Rain = 0
KES1 171906Z 16013KT 27/05 A2991 RMK A01 T02670045  RH  024%=      5-min Rain = 0
KES1 171907Z 16012KT 27/04 A2991 RMK A01 T02660043  RH  024%=      5-min Rain = 0
KES1 171908Z 17011KT 27/05 A2991 RMK A01 T02650045  RH  024%=      5-min Rain = 0
KES1 171909Z 17012G19KT 27/04 A2991 RMK A01 T02660043  RH  024%=      5-min Rain = 0
KES1 171910Z 19012G18KT 27/04 A2991 RMK A01 T02650044  RH  024%=      5-min Rain = 0
KES1 171911Z 19012KT 26/05 A2991 RMK A01 T02640046  RH  025%=      5-min Rain = 0
KES1 171912Z 17012KT 26/05 A2991 RMK A01 T02640046  RH  025%=      5-min Rain = 0
KES1 171913Z 16012KT 26/05 A299 RMK A01 T02630046  RH  025%=      5-min Rain = 0
KES1 171914Z 17010KT 26/05 A299 RMK A01 T02630047  RH  025%=      5-min Rain = 0
KES1 171915Z 18009KT 27/05 A299 RMK A01 T02650046  RH  025%=      5-min Rain = 0
KES1 171916Z 18012G17KT 27/05 A299 RMK A01 T02670047  RH  024%=      5-min Rain = 0
KES1 171917Z 17016KT 27/04 A299 RMK A01 T02680044  RH  024%=      5-min Rain = 0
KES1 171918Z 18012KT 27/05 A299 RMK A01 T02660045  RH  024%=      5-min Rain = 0
KES1 171919Z 16010KT 26/05 A299 RMK A01 T02640047  RH  025%=      5-min Rain = 0
KES1 171920Z 17008KT 27/05 A299 RMK A01 T02650046  RH  025%=      5-min Rain = 0
KES1 171921Z 18008KT 27/05 A299 RMK A01 T02660049  RH  025%=      5-min Rain = 0
KES1 171922Z 16007KT 27/05 A299 RMK A01 T02680050  RH  025%=      5-min Rain = 0
KES1 171923Z 17011KT 27/05 A299 RMK A01 T02710048  RH  024%=      5-min Rain = 0
KES1 171924Z 19010KT 27/05 A299 RMK A01 T02710046  RH  024%=      5-min Rain = 0
KES1 171925Z 17012KT 27/05 A299 RMK A01 T02710048  RH  024%=      5-min Rain = 0
KES1 171926Z 19012KT 27/05 A299 RMK A01 T02720047  RH  024%=      5-min Rain = 0
KES1 171927Z 17010G16KT 27/05 A299 RMK A01 T02730046  RH  023%=      5-min Rain = 0
KES1 171928Z 17011KT 27/05 A299 RMK A01 T02720047  RH  024%=      5-min Rain = 0
KES1 171929Z 17011KT 27/05 A2989 RMK A01 T02720046  RH  023%=      5-min Rain = 0
KES1 171930Z 17010KT 27/05 A2989 RMK A01 T02710047  RH  024%=      5-min Rain = 0
KES1 171931Z 18013KT 27/05 A2989 RMK A01 T02730045  RH  023%=      5-min Rain = 0
KES1 171932Z 15009G14KT 27/05 A2989 RMK A01 T02730047  RH  024%=      5-min Rain = 0
KES1 171933Z 15011KT 27/05 A2989 RMK A01 T02730045  RH  023%=      5-min Rain = 0
KES1 171934Z 15008KT 27/05 A2989 RMK A01 T02720045  RH  023%=      5-min Rain = 0
KES1 171935Z 17011G16KT 27/05 A2989 RMK A01 T02720046  RH  023%=      5-min Rain = 0
KES1 171936Z 18011KT 27/05 A2989 RMK A01 T02720046  RH  024%=      5-min Rain = 0
KES1 171937Z 19014KT 27/05 A2989 RMK A01 T02720046  RH  024%=      5-min Rain = 0
KES1 171938Z 17009KT 27/05 A2989 RMK A01 T02710046  RH  024%=      5-min Rain = 0
KES1 171939Z 18007KT 27/05 A2989 RMK A01 T02710049  RH  024%=      5-min Rain = 0
KES1 171940Z 20011KT 27/05 A2989 RMK A01 T02730047  RH  024%=      5-min Rain = 0
KES1 171941Z 19014KT 27/05 A2989 RMK A01 T02720046  RH  023%=      5-min Rain = 0
KES1 171942Z 17010KT 27/05 A2989 RMK A01 T02710046  RH  024%=      5-min Rain = 0
KES1 171943Z 17010KT 27/05 A2989 RMK A01 T02730049  RH  024%=      5-min Rain = 0
KES1 171944Z 16012KT 27/05 A2988 RMK A01 T02730045  RH  023%=      5-min Rain = 0
KES1 171945Z 15013G18KT 27/05 A2988 RMK A01 T02710047  RH  024%=      5-min Rain = 0
KES1 171946Z 15014KT 27/05 A2988 RMK A01 T02710047  RH  024%=      5-min Rain = 0
KES1 171947Z 16013KT 27/05 A2988 RMK A01 T02720048  RH  024%=      5-min Rain = 0
KES1 171948Z 16011KT 27/05 A2988 RMK A01 T02710045  RH  023%=      5-min Rain = 0
KES1 171949Z 17006KT 27/05 A2988 RMK A01 T02700050  RH  024%=      5-min Rain = 0
KES1 171950Z 15008KT 27/05 A2988 RMK A01 T02740054  RH  024%=      5-min Rain = 0
KES1 171951Z 16011KT 28/05 A2988 RMK A01 T02780054  RH  024%=      5-min Rain = 0
KES1 171952Z 17009KT 28/05 A2988 RMK A01 T02790052  RH  024%=      5-min Rain = 0
KES1 171953Z 19012KT 28/05 A2988 RMK A01 T02800051  RH  023%=      5-min Rain = 0
KES1 171954Z 19011KT 28/05 A2988 RMK A01 T02790052  RH  024%=      5-min Rain = 0
KES1 171955Z 18009G14KT 28/05 A2988 RMK A01 T02780051  RH  024%=      5-min Rain = 0
KES1 171956Z 15014KT 28/05 A2988 RMK A01 T02770052  RH  024%=      5-min Rain = 0
KES1 171957Z 18012KT 28/05 A2988 RMK A01 T02770052  RH  024%=      5-min Rain = 0
KES1 171958Z 17013G18KT 28/05 A2987 RMK A01 T02770052  RH  024%=      5-min Rain = 0
KES1 171959Z 18015KT 28/05 A2987 RMK A01 T02770051  RH  024%=      5-min Rain = 0
KES1 172000Z 18016KT 28/05 A2987 RMK A01 T02760050  RH  024%=      5-min Rain = 0
KES1 172001Z 18012KT 27/05 A2987 RMK A01 T02740050  RH  024%=      5-min Rain = 0
KES1 172002Z 18014KT 27/05 A2987 RMK A01 T02740052  RH  024%=      5-min Rain = 0
KES1 172003Z 17010KT 27/05 A2988 RMK A01 T02740052  RH  024%=      5-min Rain = 0
KES1 172004Z 17009KT 28/05 A2988 RMK A01 T02750052  RH  024%=      5-min Rain = 0
KES1 172005Z 17010KT 28/05 A2987 RMK A01 T02770053  RH  024%=      5-min Rain = 0
KES1 172006Z 20013KT 28/06 A2987 RMK A01 T02770055  RH  024%=      5-min Rain = 0
KES1 172007Z 19011KT 28/05 A2987 RMK A01 T02780051  RH  024%=      5-min Rain = 0
KES1 172008Z 18012G18KT 28/05 A2987 RMK A01 T02750054  RH  024%=      5-min Rain = 0
KES1 172009Z 16011KT 28/05 A2987 RMK A01 T02760051  RH  024%=      5-min Rain = 0
KES1 172010Z 17011KT 28/05 A2987 RMK A01 T02770054  RH  024%=      5-min Rain = 0
KES1 172011Z 17012KT 28/05 A2987 RMK A01 T02780054  RH  024%=      5-min Rain = 0
KES1 172012Z 18013KT 28/05 A2987 RMK A01 T02790051  RH  023%=      5-min Rain = 0
KES1 172013Z 18012KT 28/05 A2987 RMK A01 T02760050  RH  024%=      5-min Rain = 0
KES1 172014Z 17013KT 28/05 A2987 RMK A01 T02760052  RH  024%=      5-min Rain = 0
KES1 172015Z 19014G19KT 28/05 A2987 RMK A01 T02750051  RH  024%=      5-min Rain = 0
KES1 172016Z 18012KT 28/05 A2987 RMK A01 T02760054  RH  024%=      5-min Rain = 0
KES1 172017Z 19013KT 28/05 A2987 RMK A01 T02780054  RH  024%=      5-min Rain = 0
KES1 172018Z 19011KT 28/05 A2987 RMK A01 T02770053  RH  024%=      5-min Rain = 0
KES1 172019Z 18010KT 28/06 A2987 RMK A01 T02760055  RH  024%=      5-min Rain = 0
KES1 172020Z 18015KT 28/05 A2987 RMK A01 T02770054  RH  024%=      5-min Rain = 0
KES1 172021Z 19014KT 28/05 A2986 RMK A01 T02770052  RH  024%=      5-min Rain = 0
KES1 172022Z 18013KT 27/05 A2986 RMK A01 T02740051  RH  024%=      5-min Rain = 0
KES1 172023Z 16014KT 27/05 A2986 RMK A01 T02740048  RH  024%=      5-min Rain = 0
KES1 172024Z 18011KT 27/05 A2986 RMK A01 T02740047  RH  024%=      5-min Rain = 0
KES1 172025Z 17011G20KT 27/05 A2986 RMK A01 T02730051  RH  024%=      5-min Rain = 0
KES1 172026Z 17015KT 28/05 A2986 RMK A01 T02750050  RH  024%=      5-min Rain = 0
KES1 172027Z 17011KT 28/05 A2986 RMK A01 T02750051  RH  024%=      5-min Rain = 0
KES1 172028Z 18011KT 28/05 A2986 RMK A01 T02750050  RH  024%=      5-min Rain = 0
KES1 172029Z 17011KT 28/06 A2986 RMK A01 T02760055  RH  024%=      5-min Rain = 0
KES1 172030Z 16009KT 28/05 A2986 RMK A01 T02790054  RH  024%=      5-min Rain = 0
KES1 172031Z 15009KT 28/05 A2986 RMK A01 T02800053  RH  024%=      5-min Rain = 0
KES1 172032Z 16011KT 28/05 A2986 RMK A01 T02790054  RH  024%=      5-min Rain = 0
KES1 172033Z 18014KT 28/06 A2986 RMK A01 T02790057  RH  024%=      5-min Rain = 0
KES1 172034Z 19012KT 28/06 A2986 RMK A01 T02800061  RH  025%=      5-min Rain = 0
KES1 172035Z 19014KT 28/06 A2986 RMK A01 T02800061  RH  025%=      5-min Rain = 0
KES1 172036Z 18011KT 28/06 A2986 RMK A01 T02780060  RH  025%=      5-min Rain = 0
KES1 172037Z 17008KT 28/06 A2986 RMK A01 T02760063  RH  026%=      5-min Rain = 0
KES1 172038Z 17010G16KT 28/07 A2986 RMK A01 T02790065  RH  026%=      5-min Rain = 0
KES1 172039Z 18009KT 28/07 A2986 RMK A01 T02820066  RH  025%=      5-min Rain = 0
KES1 172040Z 17010G16KT 29/07 A2986 RMK A01 T02850067  RH  025%=      5-min Rain = 0
KES1 172041Z 16011KT 29/06 A2986 RMK A01 T02870064  RH  024%=      5-min Rain = 0
KES1 172042Z 17013KT 29/06 A2986 RMK A01 T02860062  RH  024%=      5-min Rain = 0
KES1 172043Z 18010KT 28/06 A2986 RMK A01 T02810059  RH  024%=      5-min Rain = 0
KES1 172044Z 16012G17KT 28/06 A2986 RMK A01 T02800062  RH  025%=      5-min Rain = 0
KES1 172045Z 15012KT 28/06 A2985 RMK A01 T02800060  RH  025%=      5-min Rain = 0
KES1 172046Z 16014KT 28/06 A2985 RMK A01 T02790060  RH  025%=      5-min Rain = 0
KES1 172047Z 17014KT 28/06 A2985 RMK A01 T02780060  RH  025%=      5-min Rain = 0
KES1 172048Z 16016KT 28/06 A2985 RMK A01 T02760060  RH  025%=      5-min Rain = 0
KES1 172049Z 18015KT 28/06 A2985 RMK A01 T02750060  RH  025%=      5-min Rain = 0
KES1 172050Z 17014G19KT 28/06 A2985 RMK A01 T02760061  RH  026%=      5-min Rain = 0
KES1 172051Z 17016KT 28/06 A2985 RMK A01 T02760060  RH  025%=      5-min Rain = 0
KES1 172052Z 17013KT 28/06 A2985 RMK A01 T02750061  RH  026%=      5-min Rain = 0
KES1 172053Z 18011G17KT 28/06 A2985 RMK A01 T02750061  RH  026%=      5-min Rain = 0
KES1 172054Z 19013KT 28/06 A2985 RMK A01 T02750061  RH  026%=      5-min Rain = 0
KES1 172055Z 17014KT 28/06 A2985 RMK A01 T02760063  RH  026%=      5-min Rain = 0
KES1 172056Z 16011G17KT 28/06 A2985 RMK A01 T02770064  RH  026%=      5-min Rain = 0
KES1 172057Z 18016G23KT 28/07 A2985 RMK A01 T02780065  RH  026%=      5-min Rain = 0
KES1 172058Z 19012KT 28/07 A2985 RMK A01 T02810065  RH  026%=      5-min Rain = 0
KES1 172059Z 18010G15KT 28/07 A2985 RMK A01 T02810066  RH  026%=      5-min Rain = 0
KES1 172100Z 18013G18KT 28/07 A2985 RMK A01 T02810066  RH  026%=      5-min Rain = 0
KES1 172101Z 17012KT 28/07 A2985 RMK A01 T02810065  RH  025%=      5-min Rain = 0
KES1 172102Z 17013G18KT 28/06 A2985 RMK A01 T02800064  RH  025%=      5-min Rain = 0
KES1 172103Z 18012G17KT 28/06 A2985 RMK A01 T02790064  RH  026%=      5-min Rain = 0
KES1 172104Z 18012KT 28/07 A2985 RMK A01 T02790065  RH  026%=      5-min Rain = 0
KES1 172105Z 17010KT 28/06 A2985 RMK A01 T02790064  RH  026%=      5-min Rain = 0
KES1 172106Z 17011KT 28/07 A2985 RMK A01 T02780065  RH  026%=      5-min Rain = 0
KES1 172107Z 16013KT 28/07 A2985 RMK A01 T02780065  RH  026%=      5-min Rain = 0
KES1 172108Z 16015KT 28/07 A2985 RMK A01 T02770065  RH  026%=      5-min Rain = 0
KES1 172109Z 16015G22KT 28/06 A2985 RMK A01 T02760064  RH  026%=      5-min Rain = 0
KES1 172110Z 16012G17KT 28/07 A2985 RMK A01 T02760066  RH  026%=      5-min Rain = 0
KES1 172111Z 17014G20KT 28/06 A2985 RMK A01 T02770064  RH  026%=      5-min Rain = 0
KES1 172112Z 18013KT 28/06 A2984 RMK A01 T02780064  RH  026%=      5-min Rain = 0
KES1 172113Z 17014G19KT 28/06 A2985 RMK A01 T02770063  RH  026%=      5-min Rain = 0
KES1 172114Z 17014KT 28/06 A2985 RMK A01 T02780064  RH  026%=      5-min Rain = 0
KES1 172115Z 17012KT 28/06 A2985 RMK A01 T02780063  RH  025%=      5-min Rain = 0
KES1 172116Z 18011KT 28/06 A2985 RMK A01 T02770063  RH  026%=      5-min Rain = 0
KES1 172117Z 18014KT 28/06 A2984 RMK A01 T02770063  RH  026%=      5-min Rain = 0
KES1 172118Z 17014KT 28/06 A2984 RMK A01 T02770062  RH  026%=      5-min Rain = 0
KES1 172119Z 17015KT 28/06 A2984 RMK A01 T02760063  RH  026%=      5-min Rain = 0
KES1 172120Z 17012KT 28/06 A2984 RMK A01 T02760063  RH  026%=      5-min Rain = 0
KES1 172121Z 18012KT 28/06 A2984 RMK A01 T02760064  RH  026%=      5-min Rain = 0
KES1 172122Z 17014KT 28/07 A2984 RMK A01 T02770065  RH  026%=      5-min Rain = 0
KES1 172123Z 16015G20KT 28/06 A2984 RMK A01 T02770064  RH  026%=      5-min Rain = 0
KES1 172124Z 18011G16KT 28/07 A2984 RMK A01 T02780065  RH  026%=      5-min Rain = 0
KES1 172125Z 19012KT 28/07 A2984 RMK A01 T02790067  RH  026%=      5-min Rain = 0
KES1 172126Z 19011G18KT 28/06 A2984 RMK A01 T02800063  RH  025%=      5-min Rain = 0
KES1 172127Z 18016G21KT 28/07 A2984 RMK A01 T02800066  RH  026%=      5-min Rain = 0
KES1 172128Z 17014KT 28/07 A2984 RMK A01 T02780065  RH  026%=      5-min Rain = 0
KES1 172129Z 18012G17KT 28/07 A2984 RMK A01 T02770065  RH  026%=      5-min Rain = 0
KES1 172130Z 18009KT 28/07 A2984 RMK A01 T02760066  RH  026%=      5-min Rain = 0
KES1 172131Z 17012G18KT 28/07 A2984 RMK A01 T02780066  RH  026%=      5-min Rain = 0
KES1 172132Z 17012KT 28/07 A2984 RMK A01 T02780065  RH  026%=      5-min Rain = 0
KES1 172133Z 18013G18KT 28/07 A2984 RMK A01 T02770067  RH  026%=      5-min Rain = 0
KES1 172134Z 19013G18KT 28/06 A2984 RMK A01 T02790063  RH  025%=      5-min Rain = 0
KES1 172135Z 18009G14KT 28/07 A2984 RMK A01 T02780065  RH  026%=      5-min Rain = 0
KES1 172136Z 18008KT 28/07 A2984 RMK A01 T02790068  RH  026%=      5-min Rain = 0
KES1 172137Z 20010KT 28/07 A2984 RMK A01 T02810069  RH  026%=      5-min Rain = 0
KES1 172138Z 19014G19KT 28/07 A2984 RMK A01 T02820067  RH  026%=      5-min Rain = 0
KES1 172139Z 19017G23KT 28/07 A2984 RMK A01 T02820067  RH  026%=      5-min Rain = 0
KES1 172140Z 18014KT 28/07 A2984 RMK A01 T02800066  RH  026%=      5-min Rain = 0
KES1 172141Z 16010KT 28/07 A2984 RMK A01 T02780066  RH  026%=      5-min Rain = 0
KES1 172142Z 18011KT 28/07 A2984 RMK A01 T02780068  RH  026%=      5-min Rain = 0
KES1 172143Z 18013KT 28/07 A2984 RMK A01 T02780066  RH  026%=      5-min Rain = 0
KES1 172144Z 18012G19KT 28/07 A2984 RMK A01 T02780066  RH  026%=      5-min Rain = 0
KES1 172145Z 17011KT 28/07 A2984 RMK A01 T02780066  RH  026%=      5-min Rain = 0
KES1 172146Z 17013KT 28/07 A2984 RMK A01 T02780066  RH  026%=      5-min Rain = 0
KES1 172147Z 18014KT 28/07 A2984 RMK A01 T02770066  RH  026%=      5-min Rain = 0
KES1 172148Z 18012KT 28/07 A2984 RMK A01 T02780066  RH  026%=      5-min Rain = 0
KES1 172149Z 20012KT 28/07 A2984 RMK A01 T02780066  RH  026%=      5-min Rain = 0
KES1 172150Z 20011KT 28/07 A2984 RMK A01 T02780067  RH  026%=      5-min Rain = 0
KES1 172151Z 19014KT 28/07 A2984 RMK A01 T02790065  RH  026%=      5-min Rain = 0
KES1 172152Z 18011KT 28/07 A2984 RMK A01 T02790067  RH  026%=      5-min Rain = 0
KES1 172153Z 17009KT 28/07 A2984 RMK A01 T02780067  RH  026%=      5-min Rain = 0
KES1 172154Z 17009KT 28/07 A2984 RMK A01 T02790066  RH  026%=      5-min Rain = 0
KES1 172155Z 18012KT 28/07 A2984 RMK A01 T02790067  RH  026%=      5-min Rain = 0
KES1 172156Z 17011G16KT 28/07 A2984 RMK A01 T02800067  RH  026%=      5-min Rain = 0
KES1 172157Z 18017G22KT 28/07 A2983 RMK A01 T02800066  RH  026%=      5-min Rain = 0
KES1 172158Z 18014G20KT 28/07 A2983 RMK A01 T02790065  RH  026%=      5-min Rain = 0
KES1 172159Z 19014KT 28/07 A2983 RMK A01 T02780065  RH  026%=      5-min Rain = 0
KES1 172200Z 19015KT 28/07 A2983 RMK A01 T02780066  RH  026%=      5-min Rain = 0
KES1 172201Z 17010KT 28/07 A2983 RMK A01 T02770066  RH  026%=      5-min Rain = 0
KES1 172202Z 19010G17KT 28/07 A2983 RMK A01 T02770067  RH  026%=      5-min Rain = 0
KES1 172203Z 18014G19KT 28/07 A2983 RMK A01 T02780068  RH  026%=      5-min Rain = 0
KES1 172204Z 18014G20KT 28/07 A2983 RMK A01 T02790066  RH  026%=      5-min Rain = 0
KES1 172205Z 17011KT 28/07 A2983 RMK A01 T02770066  RH  026%=      5-min Rain = 0
KES1 172206Z 18012KT 28/07 A2983 RMK A01 T02760066  RH  027%=      5-min Rain = 0
KES1 172207Z 17013KT 28/07 A2983 RMK A01 T02760068  RH  027%=      5-min Rain = 0
KES1 172208Z 17009KT 28/07 A2983 RMK A01 T02750068  RH  027%=      5-min Rain = 0
KES1 172209Z 17010G17KT 28/07 A2983 RMK A01 T02760069  RH  027%=      5-min Rain = 0
KES1 172210Z 16015KT 28/07 A2983 RMK A01 T02770068  RH  027%=      5-min Rain = 0
KES1 172211Z 16014KT 28/07 A2983 RMK A01 T02770068  RH  027%=      5-min Rain = 0
KES1 172212Z 16012KT 28/07 A2983 RMK A01 T02760067  RH  027%=      5-min Rain = 0
KES1 172213Z 18011KT 28/07 A2983 RMK A01 T02750069  RH  027%=      5-min Rain = 0
KES1 172214Z 18011G16KT 28/07 A2983 RMK A01 T02760068  RH  027%=      5-min Rain = 0
KES1 172215Z 17010KT 28/07 A2983 RMK A01 T02760068  RH  027%=      5-min Rain = 0
KES1 172216Z 16013KT 28/07 A2983 RMK A01 T02760067  RH  026%=      5-min Rain = 0
KES1 172217Z 16014KT 28/07 A2983 RMK A01 T02750066  RH  027%=      5-min Rain = 0
KES1 172218Z 16013KT 27/07 A2983 RMK A01 T02740067  RH  027%=      5-min Rain = 0
KES1 172219Z 18014KT 27/07 A2983 RMK A01 T02730067  RH  027%=      5-min Rain = 0
KES1 172220Z 19011G17KT 27/07 A2983 RMK A01 T02740065  RH  027%=      5-min Rain = 0
KES1 172221Z 18009KT 27/07 A2983 RMK A01 T02740068  RH  027%=      5-min Rain = 0
KES1 172222Z 16009G14KT 28/07 A2983 RMK A01 T02750068  RH  027%=      5-min Rain = 0
KES1 172223Z 16014KT 28/07 A2982 RMK A01 T02750069  RH  027%=      5-min Rain = 0
KES1 172224Z 16011KT 28/07 A2982 RMK A01 T02750067  RH  027%=      5-min Rain = 0
KES1 172225Z 16010KT 27/07 A2982 RMK A01 T02740067  RH  027%=      5-min Rain = 0
KES1 172226Z 16012KT 27/07 A2982 RMK A01 T02730068  RH  027%=      5-min Rain = 0
KES1 172227Z 16011KT 27/07 A2982 RMK A01 T02730068  RH  027%=      5-min Rain = 0
KES1 172228Z 16012G22KT 27/07 A2982 RMK A01 T02730068  RH  027%=      5-min Rain = 0
KES1 172229Z 17017G22KT 27/07 A2982 RMK A01 T02730067  RH  027%=      5-min Rain = 0
KES1 172230Z 18015KT 27/07 A2982 RMK A01 T02720067  RH  027%=      5-min Rain = 0
KES1 172231Z 17013KT 27/07 A2982 RMK A01 T02710067  RH  027%=      5-min Rain = 0
KES1 172232Z 17013KT 27/07 A2982 RMK A01 T02710067  RH  027%=      5-min Rain = 0
KES1 172233Z 16013KT 27/07 A2982 RMK A01 T02710066  RH  027%=      5-min Rain = 0
KES1 172234Z 17012KT 27/07 A2982 RMK A01 T02700066  RH  027%=      5-min Rain = 0
KES1 172235Z 17013KT 27/07 A2982 RMK A01 T02700067  RH  027%=      5-min Rain = 0
KES1 172236Z 17014KT 27/07 A2982 RMK A01 T02700067  RH  028%=      5-min Rain = 0
KES1 172237Z 16015KT 27/07 A2982 RMK A01 T02700066  RH  027%=      5-min Rain = 0
KES1 172238Z 16011KT 27/07 A2982 RMK A01 T02700067  RH  027%=      5-min Rain = 0
KES1 172239Z 17015KT 27/07 A2982 RMK A01 T02700067  RH  028%=      5-min Rain = 0
KES1 172240Z 17014G21KT 27/07 A2982 RMK A01 T02690066  RH  028%=      5-min Rain = 0
KES1 172241Z 16017KT 27/07 A2982 RMK A01 T02690066  RH  028%=      5-min Rain = 0
KES1 172242Z 16017KT 27/07 A2982 RMK A01 T02680066  RH  028%=      5-min Rain = 0
KES1 172243Z 16014KT 27/07 A2982 RMK A01 T02680066  RH  028%=      5-min Rain = 0
KES1 172244Z 16016KT 27/07 A2982 RMK A01 T02680067  RH  028%=      5-min Rain = 0
KES1 172245Z 16014KT 27/07 A2982 RMK A01 T02670066  RH  028%=      5-min Rain = 0
KES1 172246Z 16015KT 27/07 A2982 RMK A01 T02670067  RH  028%=      5-min Rain = 0
KES1 172247Z 17014G21KT 27/07 A2982 RMK A01 T02670067  RH  028%=      5-min Rain = 0
KES1 172248Z 17016KT 27/07 A2982 RMK A01 T02670067  RH  028%=      5-min Rain = 0
KES1 172249Z 16016KT 27/07 A2982 RMK A01 T02670066  RH  028%=      5-min Rain = 0
KES1 172250Z 17011KT 27/07 A2982 RMK A01 T02670067  RH  028%=      5-min Rain = 0
KES1 172251Z 17012KT 27/07 A2982 RMK A01 T02670067  RH  028%=      5-min Rain = 0
KES1 172252Z 15011KT 27/07 A2982 RMK A01 T02670068  RH  028%=      5-min Rain = 0
KES1 172253Z 15013G19KT 27/07 A2982 RMK A01 T02670068  RH  028%=      5-min Rain = 0
KES1 172254Z 17010KT 27/07 A2982 RMK A01 T02660068  RH  028%=      5-min Rain = 0
KES1 172255Z 16014KT 27/07 A2982 RMK A01 T02660068  RH  028%=      5-min Rain = 0
KES1 172256Z 17014KT 27/07 A2982 RMK A01 T02660067  RH  028%=      5-min Rain = 0
KES1 172257Z 17013KT 26/07 A2982 RMK A01 T02640066  RH  028%=      5-min Rain = 0
KES1 172258Z 17012KT 26/07 A2982 RMK A01 T02640067  RH  028%=      5-min Rain = 0
KES1 172259Z 16012KT 26/07 A2982 RMK A01 T02630065  RH  028%=      5-min Rain = 0
KES1 172300Z 16015KT 26/06 A2982 RMK A01 T02620063  RH  028%=      5-min Rain = 0
KES1 172301Z 16011KT 26/06 A2982 RMK A01 T02620062  RH  028%=      5-min Rain = 0
KES1 172302Z 15013KT 26/06 A2982 RMK A01 T02610060  RH  028%=      5-min Rain = 0
KES1 172303Z 15016KT 26/06 A2982 RMK A01 T02600058  RH  027%=      5-min Rain = 0
KES1 172304Z 15013KT 26/06 A2982 RMK A01 T02600057  RH  027%=      5-min Rain = 0
KES1 172305Z 15011KT 26/06 A2982 RMK A01 T02600057  RH  027%=      5-min Rain = 0
KES1 172306Z 16012KT 26/06 A2982 RMK A01 T02600057  RH  027%=      5-min Rain = 0
KES1 172307Z 17013KT 26/06 A2982 RMK A01 T02590057  RH  027%=      5-min Rain = 0
KES1 172308Z 16011KT 26/06 A2982 RMK A01 T02590058  RH  028%=      5-min Rain = 0
KES1 172309Z 16012G17KT 26/06 A2982 RMK A01 T02580059  RH  028%=      5-min Rain = 0
KES1 172310Z 17013KT 26/06 A2982 RMK A01 T02590060  RH  028%=      5-min Rain = 0
KES1 172311Z 17013KT 26/06 A2982 RMK A01 T02580060  RH  028%=      5-min Rain = 0
KES1 172312Z 16011KT 26/06 A2982 RMK A01 T02590060  RH  028%=      5-min Rain = 0
KES1 172313Z 17010KT 26/06 A2982 RMK A01 T02590061  RH  028%=      5-min Rain = 0
KES1 172314Z 17010KT 26/06 A2982 RMK A01 T02590061  RH  028%=      5-min Rain = 0
KES1 172315Z 16010KT 26/06 A2982 RMK A01 T02590061  RH  028%=      5-min Rain = 0
KES1 172316Z 16009KT 26/06 A2982 RMK A01 T02580061  RH  028%=      5-min Rain = 0
KES1 172317Z 16011G16KT 26/06 A2982 RMK A01 T02580059  RH  028%=      5-min Rain = 0
KES1 172318Z 16009KT 26/06 A2982 RMK A01 T02580059  RH  028%=      5-min Rain = 0
KES1 172319Z 16011KT 26/06 A2982 RMK A01 T02570059  RH  028%=      5-min Rain = 0
KES1 172320Z 15011KT 26/06 A2982 RMK A01 T02560056  RH  028%=      5-min Rain = 0
KES1 172321Z 16011KT 26/06 A2982 RMK A01 T02550056  RH  028%=      5-min Rain = 0
KES1 172322Z 16012KT 26/06 A2982 RMK A01 T02550055  RH  028%=      5-min Rain = 0
KES1 172323Z 16013KT 25/05 A2982 RMK A01 T02540054  RH  028%=      5-min Rain = 0
KES1 172324Z 15011KT 25/05 A2982 RMK A01 T02540053  RH  028%=      5-min Rain = 0
KES1 172325Z 16012KT 25/05 A2982 RMK A01 T02530053  RH  028%=      5-min Rain = 0
KES1 172326Z 16011KT 25/05 A2982 RMK A01 T02520051  RH  027%=      5-min Rain = 0
KES1 172327Z 15011KT 25/05 A2982 RMK A01 T02520050  RH  027%=      5-min Rain = 0
KES1 172328Z 15013KT 25/05 A2982 RMK A01 T02510048  RH  027%=      5-min Rain = 0
KES1 172329Z 16015KT 25/05 A2982 RMK A01 T02510046  RH  027%=      5-min Rain = 0
KES1 172330Z 16013KT 25/05 A2982 RMK A01 T02510045  RH  026%=      5-min Rain = 0
KES1 172331Z 16011KT 25/05 A2982 RMK A01 T02510045  RH  026%=      5-min Rain = 0
KES1 172332Z 16012KT 25/05 A2982 RMK A01 T02510045  RH  026%=      5-min Rain = 0
KES1 172333Z 16011KT 25/05 A2982 RMK A01 T02490045  RH  027%=      5-min Rain = 0
KES1 172334Z 15010KT 25/05 A2982 RMK A01 T02490045  RH  027%=      5-min Rain = 0
KES1 172335Z 15011KT 25/04 A2982 RMK A01 T02470044  RH  027%=      5-min Rain = 0
KES1 172336Z 16011KT 25/04 A2982 RMK A01 T02460044  RH  027%=      5-min Rain = 0
KES1 172337Z 16011KT 25/04 A2982 RMK A01 T02460044  RH  027%=      5-min Rain = 0
KES1 172338Z 16010KT 25/04 A2982 RMK A01 T02460043  RH  027%=      5-min Rain = 0
KES1 172339Z 16011KT 25/04 A2982 RMK A01 T02450043  RH  027%=      5-min Rain = 0
KES1 172340Z 15012KT 24/04 A2982 RMK A01 T02440043  RH  027%=      5-min Rain = 0
KES1 172341Z 15012KT 24/04 A2982 RMK A01 T02440042  RH  027%=      5-min Rain = 0
KES1 172342Z 15011KT 24/04 A2982 RMK A01 T02440043  RH  027%=      5-min Rain = 0
KES1 172343Z 15010KT 24/04 A2982 RMK A01 T02430043  RH  027%=      5-min Rain = 0
KES1 172344Z 15011KT 24/04 A2982 RMK A01 T02420043  RH  027%=      5-min Rain = 0
KES1 172345Z 15011KT 24/04 A2982 RMK A01 T02420043  RH  028%=      5-min Rain = 0
KES1 172346Z 15010KT 24/04 A2982 RMK A01 T02410042  RH  028%=      5-min Rain = 0
KES1 172347Z 15011KT 24/04 A2982 RMK A01 T02400043  RH  028%=      5-min Rain = 0
KES1 172348Z 15011KT 24/04 A2982 RMK A01 T02390042  RH  028%=      5-min Rain = 0
KES1 172349Z 15010G15KT 24/04 A2982 RMK A01 T02390042  RH  028%=      5-min Rain = 0
KES1 172350Z 15012KT 24/04 A2982 RMK A01 T02380041  RH  028%=      5-min Rain = 0
KES1 172351Z 15011KT 24/04 A2982 RMK A01 T02380041  RH  028%=      5-min Rain = 0
KES1 172352Z 15009KT 24/04 A2982 RMK A01 T02380041  RH  028%=      5-min Rain = 0
KES1 172353Z 15011KT 24/04 A2982 RMK A01 T02370041  RH  028%=      5-min Rain = 0
KES1 172354Z 15012KT 24/04 A2982 RMK A01 T02360041  RH  028%=      5-min Rain = 0
KES1 172355Z 15011KT 24/04 A2982 RMK A01 T02360041  RH  028%=      5-min Rain = 0
KES1 172356Z 15010KT 24/04 A2982 RMK A01 T02360041  RH  028%=      5-min Rain = 0
KES1 172357Z 15011KT 24/04 A2982 RMK A01 T02350040  RH  028%=      5-min Rain = 0
KES1 172358Z 15012KT 24/04 A2982 RMK A01 T02350040  RH  028%=      5-min Rain = 0
KES1 172359Z 15009KT 24/04 A2982 RMK A01 T02350040  RH  028%=      5-min Rain = 0
KES1 180000Z 15011KT 23/04 A2982 RMK A01 T02340040  RH  028%=      5-min Rain = 0
KES1 180001Z 15011KT 23/04 A2982 RMK A01 T02340040  RH  028%=      5-min Rain = 0
KES1 180002Z 15009KT 23/04 A2982 RMK A01 T02330040  RH  028%=      5-min Rain = 0
KES1 180003Z 15010KT 23/04 A2982 RMK A01 T02330040  RH  028%=      5-min Rain = 0
KES1 180004Z 15010KT 23/04 A2982 RMK A01 T02320039  RH  029%=      5-min Rain = 0
KES1 180005Z 15011KT 23/04 A2981 RMK A01 T02310039  RH  029%=      5-min Rain = 0
KES1 180006Z 15010KT 23/04 A2981 RMK A01 T02300039  RH  029%=      5-min Rain = 0
KES1 180007Z 15009KT 23/04 A2981 RMK A01 T02300039  RH  029%=      5-min Rain = 0
KES1 180008Z 15010KT 23/04 A2981 RMK A01 T02300039  RH  029%=      5-min Rain = 0
KES1 180009Z 15010KT 23/04 A2981 RMK A01 T02290038  RH  029%=      5-min Rain = 0
KES1 180010Z 15009KT 23/04 A2981 RMK A01 T02280038  RH  029%=      5-min Rain = 0
KES1 180011Z 15009KT 23/04 A2981 RMK A01 T02270039  RH  029%=      5-min Rain = 0
KES1 180012Z 15009KT 23/04 A2981 RMK A01 T02260038  RH  029%=      5-min Rain = 0
KES1 180013Z 15011KT 23/04 A2981 RMK A01 T02260038  RH  029%=      5-min Rain = 0
KES1 180014Z 15011KT 23/04 A2981 RMK A01 T02260037  RH  029%=      5-min Rain = 0
KES1 180015Z 15010KT 23/04 A2981 RMK A01 T02250037  RH  029%=      5-min Rain = 0
KES1 180016Z 15010KT 23/04 A2981 RMK A01 T02250037  RH  029%=      5-min Rain = 0
KES1 180017Z 15010KT 23/04 A2981 RMK A01 T02250036  RH  029%=      5-min Rain = 0
KES1 180018Z 15010KT 23/04 A2981 RMK A01 T02250035  RH  029%=      5-min Rain = 0
KES1 180019Z 15010KT 22/03 A2981 RMK A01 T02240034  RH  029%=      5-min Rain = 0
KES1 180020Z 15010KT 22/03 A2981 RMK A01 T02240034  RH  029%=      5-min Rain = 0
KES1 180021Z 15011KT 22/03 A2981 RMK A01 T02240033  RH  029%=      5-min Rain = 0
KES1 180022Z 15011KT 22/03 A2981 RMK A01 T02240033  RH  029%=      5-min Rain = 0
KES1 180023Z 15011KT 22/03 A2981 RMK A01 T02230032  RH  029%=      5-min Rain = 0
KES1 180024Z 15010KT 22/03 A2981 RMK A01 T02230032  RH  029%=      5-min Rain = 0
KES1 180025Z 15013KT 22/03 A2981 RMK A01 T02230031  RH  028%=      5-min Rain = 0
KES1 180026Z 15011KT 22/03 A2981 RMK A01 T02230031  RH  028%=      5-min Rain = 0
KES1 180027Z 15011KT 22/03 A2981 RMK A01 T02230030  RH  028%=      5-min Rain = 0
KES1 180028Z 15012KT 22/03 A2981 RMK A01 T02230030  RH  028%=      5-min Rain = 0
KES1 180029Z 15011KT 22/03 A2981 RMK A01 T02230029  RH  028%=      5-min Rain = 0
KES1 180030Z 15011KT 22/03 A2981 RMK A01 T02230029  RH  028%=      5-min Rain = 0
KES1 180031Z 15011KT 22/03 A2981 RMK A01 T02220029  RH  028%=      5-min Rain = 0
KES1 180032Z 15011KT 22/03 A2981 RMK A01 T02220029  RH  028%=      5-min Rain = 0
KES1 180033Z 15011KT 22/03 A2981 RMK A01 T02210029  RH  028%=      5-min Rain = 0
KES1 180034Z 15010G15KT 22/03 A2981 RMK A01 T02200029  RH  028%=      5-min Rain = 0
KES1 180035Z 15011KT 22/03 A2981 RMK A01 T02200029  RH  028%=      5-min Rain = 0
KES1 180036Z 15011KT 22/03 A2981 RMK A01 T02200028  RH  028%=      5-min Rain = 0
KES1 180037Z 15011KT 22/03 A2981 RMK A01 T02200028  RH  028%=      5-min Rain = 0
KES1 180038Z 15012KT 22/03 A2981 RMK A01 T02190028  RH  028%=      5-min Rain = 0
KES1 180039Z 14011KT 22/03 A2981 RMK A01 T02190028  RH  028%=      5-min Rain = 0
KES1 180040Z 15012KT 22/03 A2981 RMK A01 T02190028  RH  028%=      5-min Rain = 0
KES1 180041Z 14012KT 22/03 A2981 RMK A01 T02190028  RH  029%=      5-min Rain = 0
KES1 180042Z 14012KT 22/03 A2981 RMK A01 T02190028  RH  028%=      5-min Rain = 0
KES1 180043Z 14013KT 22/03 A2981 RMK A01 T02190028  RH  028%=      5-min Rain = 0
KES1 180044Z 14011KT 22/03 A2981 RMK A01 T02180026  RH  028%=      5-min Rain = 0
KES1 180045Z 14011KT 22/03 A2981 RMK A01 T02180026  RH  028%=      5-min Rain = 0
KES1 180046Z 15012G17KT 22/03 A2981 RMK A01 T02180025  RH  028%=      5-min Rain = 0
KES1 180047Z 15011KT 22/02 A2981 RMK A01 T02180024  RH  028%=      5-min Rain = 0
KES1 180048Z 15010KT 22/02 A2981 RMK A01 T02180023  RH  027%=      5-min Rain = 0
KES1 180049Z 14011KT 22/02 A2981 RMK A01 T02180022  RH  027%=      5-min Rain = 0
KES1 180050Z 14012KT 22/02 A2981 RMK A01 T02180021  RH  027%=      5-min Rain = 0
KES1 180051Z 14011KT 22/02 A2981 RMK A01 T02180021  RH  027%=      5-min Rain = 0
KES1 180052Z 14013KT 22/02 A2981 RMK A01 T02180020  RH  027%=      5-min Rain = 0
KES1 180053Z 14011KT 22/02 A2981 RMK A01 T02180019  RH  027%=      5-min Rain = 0
KES1 180054Z 14010KT 22/02 A2981 RMK A01 T02180019  RH  027%=      5-min Rain = 0
KES1 180055Z 14012KT 22/02 A2981 RMK A01 T02170018  RH  027%=      5-min Rain = 0
KES1 180056Z 14014KT 22/02 A2981 RMK A01 T02160016  RH  026%=      5-min Rain = 0
KES1 180057Z 15012KT 22/02 A2981 RMK A01 T02170015  RH  026%=      5-min Rain = 0
KES1 180058Z 14012KT 22/01 A2981 RMK A01 T02170014  RH  026%=      5-min Rain = 0
KES1 180059Z 15012KT 22/01 A2981 RMK A01 T02170014  RH  026%=      5-min Rain = 0
KES1 180100Z 15012KT 22/01 A2981 RMK A01 T02170013  RH  026%=      5-min Rain = 0
KES1 180101Z 14012KT 22/01 A2981 RMK A01 T02160013  RH  026%=      5-min Rain = 0
KES1 180102Z 15012KT 22/01 A2981 RMK A01 T02150012  RH  026%=      5-min Rain = 0
KES1 180103Z 15011KT 21/01 A2981 RMK A01 T02140011  RH  026%=      5-min Rain = 0
KES1 180104Z 14011KT 21/01 A2981 RMK A01 T02140010  RH  026%=      5-min Rain = 0
KES1 180105Z 15011KT 21/01 A2981 RMK A01 T02140010  RH  026%=      5-min Rain = 0
KES1 180106Z 15011KT 21/01 A2981 RMK A01 T02130008  RH  026%=      5-min Rain = 0
KES1 180107Z 14012KT 21/01 A2981 RMK A01 T02130008  RH  026%=      5-min Rain = 0
KES1 180108Z 14012KT 21/01 A2981 RMK A01 T02130007  RH  025%=      5-min Rain = 0
KES1 180109Z 15013KT 21/01 A2981 RMK A01 T02130006  RH  025%=      5-min Rain = 0
KES1 180110Z 15011KT 21/01 A2981 RMK A01 T02130006  RH  025%=      5-min Rain = 0
KES1 180111Z 15012G17KT 21/01 A2981 RMK A01 T02130005  RH  025%=      5-min Rain = 0
KES1 180112Z 15013KT 21/01 A2981 RMK A01 T02130005  RH  025%=      5-min Rain = 0
KES1 180113Z 15011KT 21/00 A2981 RMK A01 T02130004  RH  025%=      5-min Rain = 0
KES1 180114Z 14012G17KT 21/00 A2981 RMK A01 T02130004  RH  025%=      5-min Rain = 0
KES1 180115Z 14010G15KT 21/00 A2981 RMK A01 T02130004  RH  025%=      5-min Rain = 0
KES1 180116Z 15011KT 21/00 A2982 RMK A01 T02120004  RH  025%=      5-min Rain = 0
KES1 180117Z 15011KT 21/00 A2982 RMK A01 T02120003  RH  025%=      5-min Rain = 0
KES1 180118Z 14011KT 21/00 A2982 RMK A01 T02120002  RH  025%=      5-min Rain = 0
KES1 180119Z 15012KT 21/00 A2982 RMK A01 T02120002  RH  025%=      5-min Rain = 0
KES1 180120Z 15011G17KT 21/00 A2981 RMK A01 T02120002  RH  025%=      5-min Rain = 0
KES1 180121Z 14013G18KT 21/00 A2981 RMK A01 T02120000  RH  024%=      5-min Rain = 0
KES1 180122Z 15012KT 21/00 A2981 RMK A01 T02120000  RH  024%=      5-min Rain = 0
KES1 180123Z 14012KT 21/00 A2981 RMK A01 T02120000  RH  024%=      5-min Rain = 0
KES1 180124Z 15012KT 21/00 A2981 RMK A01 T021200-0  RH  024%=      5-min Rain = 0
KES1 180125Z 15012KT 21/00 A2981 RMK A01 T021100-0  RH  024%=      5-min Rain = 0
KES1 180126Z 14013KT 21/M00 A2982 RMK A01 T02121001  RH  024%=      5-min Rain = 0
KES1 180127Z 15012G17KT 21/M00 A2982 RMK A01 T02111001  RH  024%=      5-min Rain = 0
KES1 180128Z 14012KT 21/M00 A2982 RMK A01 T02111001  RH  024%=      5-min Rain = 0
KES1 180129Z 14012KT 21/M00 A2982 RMK A01 T02111002  RH  024%=      5-min Rain = 0
KES1 180130Z 15013KT 21/M00 A2982 RMK A01 T02111002  RH  024%=      5-min Rain = 0
KES1 180131Z 15012KT 21/M00 A2982 RMK A01 T02111002  RH  024%=      5-min Rain = 0
KES1 180132Z 14010KT 21/M00 A2982 RMK A01 T02101003  RH  024%=      5-min Rain = 0
KES1 180133Z 15010KT 21/M00 A2982 RMK A01 T02101002  RH  024%=      5-min Rain = 0
KES1 180134Z 15012KT 21/M00 A2982 RMK A01 T02101003  RH  024%=      5-min Rain = 0
KES1 180135Z 14012KT 21/M00 A2982 RMK A01 T02091002  RH  024%=      5-min Rain = 0
KES1 180136Z 15011KT 21/M00 A2982 RMK A01 T02091003  RH  024%=      5-min Rain = 0
KES1 180137Z 15011KT 21/M00 A2982 RMK A01 T02091004  RH  024%=      5-min Rain = 0
KES1 180138Z 15011KT 21/M00 A2982 RMK A01 T02091004  RH  024%=      5-min Rain = 0
KES1 180139Z 15012KT 21/M00 A2981 RMK A01 T02091004  RH  024%=      5-min Rain = 0
KES1 180140Z 15009KT 21/M00 A2981 RMK A01 T02091004  RH  024%=      5-min Rain = 0
KES1 180141Z 16012KT 21/M00 A2981 RMK A01 T02081004  RH  024%=      5-min Rain = 0
KES1 180142Z 14012KT 21/M00 A2981 RMK A01 T02081004  RH  024%=      5-min Rain = 0
KES1 180143Z 15011KT 21/M00 A2981 RMK A01 T02081004  RH  024%=      5-min Rain = 0
KES1 180144Z 15012KT 21/M00 A2981 RMK A01 T02081004  RH  024%=      5-min Rain = 0
KES1 180145Z 15011KT 21/M01 A2981 RMK A01 T02071005  RH  024%=      5-min Rain = 0
KES1 180146Z 15012KT 21/M01 A2981 RMK A01 T02071005  RH  024%=      5-min Rain = 0
KES1 180147Z 15012KT 21/M01 A2981 RMK A01 T02071005  RH  024%=      5-min Rain = 0
KES1 180148Z 14012KT 21/M01 A2981 RMK A01 T02071005  RH  024%=      5-min Rain = 0
KES1 180149Z 15013KT 21/M01 A2981 RMK A01 T02061005  RH  024%=      5-min Rain = 0
KES1 180150Z 15013KT 21/M01 A2981 RMK A01 T02061006  RH  024%=      5-min Rain = 0
KES1 180151Z 15011KT 21/M01 A2981 RMK A01 T02061006  RH  024%=      5-min Rain = 0
KES1 180152Z 15012KT 21/M01 A2981 RMK A01 T02061006  RH  024%=      5-min Rain = 0
KES1 180153Z 16011KT 21/M01 A2981 RMK A01 T02061006  RH  024%=      5-min Rain = 0
KES1 180154Z 15011KT 21/M01 A2981 RMK A01 T02051007  RH  024%=      5-min Rain = 0
KES1 180155Z 15010KT 21/M01 A2981 RMK A01 T02051006  RH  024%=      5-min Rain = 0
KES1 180156Z 15011KT 20/M01 A2981 RMK A01 T02041007  RH  024%=      5-min Rain = 0
KES1 180157Z 15011KT 20/M01 A2981 RMK A01 T02041007  RH  024%=      5-min Rain = 0
KES1 180158Z 15012KT 20/M01 A2981 RMK A01 T02041008  RH  024%=      5-min Rain = 0
KES1 180159Z 15014KT 21/M01 A2982 RMK A01 T02051009  RH  024%=      5-min Rain = 0
KES1 180200Z 15012KT 21/M01 A2982 RMK A01 T02051009  RH  024%=      5-min Rain = 0
KES1 180201Z 15012KT 21/M01 A2982 RMK A01 T02051009  RH  024%=      5-min Rain = 0
KES1 180202Z 15013KT 20/M01 A2982 RMK A01 T02041009  RH  024%=      5-min Rain = 0
KES1 180203Z 15010KT 20/M01 A2982 RMK A01 T02041009  RH  024%=      5-min Rain = 0
KES1 180204Z 15010KT 20/M01 A2982 RMK A01 T02031009  RH  024%=      5-min Rain = 0
KES1 180205Z 16011KT 20/M01 A2982 RMK A01 T02031009  RH  024%=      5-min Rain = 0
KES1 180206Z 15012KT 20/M01 A2982 RMK A01 T02021010  RH  024%=      5-min Rain = 0
KES1 180207Z 15011KT 20/M01 A2982 RMK A01 T02031010  RH  024%=      5-min Rain = 0
KES1 180208Z 15012KT 20/M01 A2982 RMK A01 T02031010  RH  024%=      5-min Rain = 0
KES1 180209Z 15009KT 20/M01 A2982 RMK A01 T02031010  RH  024%=      5-min Rain = 0
KES1 180210Z 15012KT 20/M01 A2982 RMK A01 T02021010  RH  024%=      5-min Rain = 0
KES1 180211Z 16011KT 20/M01 A2982 RMK A01 T02021010  RH  024%=      5-min Rain = 0
KES1 180212Z 15011KT 20/M01 A2982 RMK A01 T02021010  RH  024%=      5-min Rain = 0
KES1 180213Z 16012KT 20/M01 A2982 RMK A01 T02011010  RH  024%=      5-min Rain = 0
KES1 180214Z 15011KT 20/M01 A2982 RMK A01 T02001010  RH  024%=      5-min Rain = 0
KES1 180215Z 16010KT 20/M01 A2982 RMK A01 T02001010  RH  024%=      5-min Rain = 0
KES1 180216Z 16012G17KT 20/M01 A2982 RMK A01 T01991010  RH  024%=      5-min Rain = 0
KES1 180217Z 16011KT 20/M01 A2982 RMK A01 T01991010  RH  024%=      5-min Rain = 0
KES1 180218Z 16011KT 20/M01 A2982 RMK A01 T01981010  RH  025%=      5-min Rain = 0
KES1 180219Z 16011KT 20/M01 A2982 RMK A01 T01981010  RH  025%=      5-min Rain = 0
KES1 180220Z 16010KT 20/M01 A2982 RMK A01 T01981010  RH  025%=      5-min Rain = 0
KES1 180221Z 16010KT 20/M01 A2982 RMK A01 T01971010  RH  025%=      5-min Rain = 0
KES1 180222Z 16013KT 20/M01 A2982 RMK A01 T01971010  RH  025%=      5-min Rain = 0
KES1 180223Z 16011KT 20/M01 A2982 RMK A01 T01971010  RH  025%=      5-min Rain = 0
KES1 180224Z 16011KT 20/M01 A2982 RMK A01 T01971010  RH  025%=      5-min Rain = 0
KES1 180225Z 16011KT 20/M01 A2982 RMK A01 T01961010  RH  025%=      5-min Rain = 0
KES1 180226Z 16011KT 20/M01 A2982 RMK A01 T01961010  RH  025%=      5-min Rain = 0
KES1 180227Z 16011KT 20/M01 A2982 RMK A01 T01951009  RH  025%=      5-min Rain = 0
KES1 180228Z 17011KT 20/M01 A2982 RMK A01 T01951009  RH  025%=      5-min Rain = 0
KES1 180229Z 16010KT 19/M01 A2982 RMK A01 T01941009  RH  025%=      5-min Rain = 0
KES1 180230Z 16010KT 19/M01 A2982 RMK A01 T01941009  RH  025%=      5-min Rain = 0
KES1 180231Z 16010KT 19/M01 A2982 RMK A01 T01931009  RH  025%=      5-min Rain = 0
KES1 180232Z 16010KT 19/M01 A2982 RMK A01 T01931009  RH  026%=      5-min Rain = 0
KES1 180233Z 16010KT 19/M01 A2982 RMK A01 T01921009  RH  026%=      5-min Rain = 0
KES1 180234Z 16010KT 19/M01 A2982 RMK A01 T01921009  RH  026%=      5-min Rain = 0
KES1 180235Z 16009KT 19/M01 A2982 RMK A01 T01921008  RH  026%=      5-min Rain = 0
KES1 180236Z 16009KT 19/M01 A2982 RMK A01 T01911008  RH  026%=      5-min Rain = 0
KES1 180237Z 16010KT 19/M01 A2982 RMK A01 T01901008  RH  026%=      5-min Rain = 0
KES1 180238Z 17009KT 19/M01 A2982 RMK A01 T01891008  RH  026%=      5-min Rain = 0
KES1 180239Z 17010KT 19/M01 A2982 RMK A01 T01891008  RH  026%=      5-min Rain = 0
KES1 180240Z 17010KT 19/M01 A2982 RMK A01 T01891008  RH  026%=      5-min Rain = 0
KES1 180241Z 17008KT 19/M01 A2982 RMK A01 T01891008  RH  026%=      5-min Rain = 0
KES1 180242Z 16010KT 19/M01 A2982 RMK A01 T01881008  RH  027%=      5-min Rain = 0
KES1 180243Z 17009KT 19/M01 A2982 RMK A01 T01871008  RH  027%=      5-min Rain = 0
KES1 180244Z 16008KT 19/M01 A2982 RMK A01 T01871008  RH  027%=      5-min Rain = 0
KES1 180245Z 17010KT 19/M01 A2982 RMK A01 T01871008  RH  027%=      5-min Rain = 0
KES1 180246Z 16010KT 19/M01 A2982 RMK A01 T01861008  RH  027%=      5-min Rain = 0
KES1 180247Z 17010KT 19/M01 A2982 RMK A01 T01861008  RH  027%=      5-min Rain = 0
KES1 180248Z 17010KT 19/M01 A2982 RMK A01 T01861008  RH  027%=      5-min Rain = 0
KES1 180249Z 17009KT 19/M01 A2982 RMK A01 T01851008  RH  027%=      5-min Rain = 0
KES1 180250Z 17010KT 19/M01 A2982 RMK A01 T01851008  RH  027%=      5-min Rain = 0
KES1 180251Z 17009KT 19/M01 A2982 RMK A01 T01851008  RH  027%=      5-min Rain = 0
KES1 180252Z 16010KT 18/M01 A2982 RMK A01 T01841008  RH  027%=      5-min Rain = 0
KES1 180253Z 17010KT 18/M01 A2982 RMK A01 T01841008  RH  027%=      5-min Rain = 0
KES1 180254Z 16009KT 18/M01 A2982 RMK A01 T01841008  RH  027%=      5-min Rain = 0
KES1 180255Z 16010KT 18/M01 A2982 RMK A01 T01831008  RH  027%=      5-min Rain = 0
KES1 180256Z 17009KT 18/M01 A2982 RMK A01 T01831008  RH  027%=      5-min Rain = 0
KES1 180257Z 16010KT 18/M01 A2982 RMK A01 T01821009  RH  027%=      5-min Rain = 0
KES1 180258Z 16010KT 18/M01 A2982 RMK A01 T01831009  RH  027%=      5-min Rain = 0
KES1 180259Z 16008KT 18/M01 A2982 RMK A01 T01821008  RH  028%=      5-min Rain = 0
KES1 180300Z 16009KT 18/M01 A2982 RMK A01 T01811008  RH  028%=      5-min Rain = 0
KES1 180301Z 15009KT 18/M01 A2982 RMK A01 T01801008  RH  028%=      5-min Rain = 0
KES1 180302Z 15009KT 18/M01 A2982 RMK A01 T01791008  RH  028%=      5-min Rain = 0
KES1 180303Z 16009KT 18/M01 A2982 RMK A01 T01781008  RH  028%=      5-min Rain = 0
KES1 180304Z 15009KT 18/M01 A2982 RMK A01 T01781008  RH  028%=      5-min Rain = 0
KES1 180305Z 15009KT 18/M01 A2982 RMK A01 T01781008  RH  028%=      5-min Rain = 0
KES1 180306Z 16010KT 18/M01 A2982 RMK A01 T01771008  RH  028%=      5-min Rain = 0
KES1 180307Z 16008KT 18/M01 A2982 RMK A01 T01781008  RH  028%=      5-min Rain = 0
KES1 180308Z 16009KT 18/M01 A2982 RMK A01 T01771008  RH  028%=      5-min Rain = 0
KES1 180309Z 16009KT 18/M01 A2982 RMK A01 T01771008  RH  028%=      5-min Rain = 0
KES1 180310Z 15010KT 18/M01 A2982 RMK A01 T01771008  RH  029%=      5-min Rain = 0
KES1 180311Z 15010KT 18/M01 A2982 RMK A01 T01761009  RH  028%=      5-min Rain = 0
KES1 180312Z 15010KT 18/M01 A2982 RMK A01 T01761009  RH  028%=      5-min Rain = 0
KES1 180313Z 15010KT 18/M01 A2982 RMK A01 T01761009  RH  028%=      5-min Rain = 0
KES1 180314Z 15010KT 18/M01 A2982 RMK A01 T01761009  RH  028%=      5-min Rain = 0
KES1 180315Z 15010KT 18/M01 A2982 RMK A01 T01771009  RH  028%=      5-min Rain = 0
KES1 180316Z 15009KT 18/M01 A2982 RMK A01 T01771009  RH  028%=      5-min Rain = 0
KES1 180317Z 15010KT 18/M01 A2982 RMK A01 T01761009  RH  028%=      5-min Rain = 0
KES1 180318Z 15009KT 18/M01 A2982 RMK A01 T01761010  RH  028%=      5-min Rain = 0
KES1 180319Z 15010KT 18/M01 A2982 RMK A01 T01761010  RH  028%=      5-min Rain = 0
KES1 180320Z 16012KT 18/M01 A2982 RMK A01 T01761011  RH  028%=      5-min Rain = 0
KES1 180321Z 16011KT 18/M01 A2983 RMK A01 T01771011  RH  028%=      5-min Rain = 0
KES1 180322Z 15011KT 18/M01 A2983 RMK A01 T01771011  RH  028%=      5-min Rain = 0
KES1 180323Z 16009KT 18/M01 A2983 RMK A01 T01771011  RH  028%=      5-min Rain = 0
KES1 180324Z 15010KT 18/M01 A2983 RMK A01 T01771011  RH  028%=      5-min Rain = 0
KES1 180325Z 16010KT 18/M01 A2983 RMK A01 T01761011  RH  028%=      5-min Rain = 0
KES1 180326Z 16009KT 18/M01 A2983 RMK A01 T01761011  RH  028%=      5-min Rain = 0
KES1 180327Z 16010KT 18/M01 A2983 RMK A01 T01761011  RH  028%=      5-min Rain = 0
KES1 180328Z 16010KT 18/M01 A2983 RMK A01 T01761011  RH  028%=      5-min Rain = 0
KES1 180329Z 16011KT 18/M01 A2983 RMK A01 T01761011  RH  028%=      5-min Rain = 0
KES1 180330Z 16011KT 18/M01 A2983 RMK A01 T01761011  RH  028%=      5-min Rain = 0
KES1 180331Z 15010KT 18/M01 A2983 RMK A01 T01751011  RH  028%=      5-min Rain = 0
KES1 180332Z 15010KT 18/M01 A2983 RMK A01 T01761011  RH  028%=      5-min Rain = 0
KES1 180333Z 16011KT 18/M01 A2983 RMK A01 T01761011  RH  028%=      5-min Rain = 0
KES1 180334Z 16011KT 18/M01 A2983 RMK A01 T01751011  RH  028%=      5-min Rain = 0
KES1 180335Z 15011KT 18/M01 A2983 RMK A01 T01751011  RH  028%=      5-min Rain = 0
KES1 180336Z 16010KT 18/M01 A2983 RMK A01 T01751011  RH  028%=      5-min Rain = 0
KES1 180337Z 16011KT 17/M01 A2983 RMK A01 T01741011  RH  028%=      5-min Rain = 0
KES1 180338Z 16011KT 17/M01 A2983 RMK A01 T01741011  RH  028%=      5-min Rain = 0
KES1 180339Z 16012KT 17/M01 A2983 RMK A01 T01741012  RH  028%=      5-min Rain = 0
KES1 180340Z 16012KT 18/M01 A2983 RMK A01 T01751012  RH  028%=      5-min Rain = 0
KES1 180341Z 16011KT 18/M01 A2983 RMK A01 T01751012  RH  028%=      5-min Rain = 0
KES1 180342Z 16011KT 18/M01 A2983 RMK A01 T01761012  RH  028%=      5-min Rain = 0
KES1 180343Z 16011KT 18/M01 A2983 RMK A01 T01761012  RH  028%=      5-min Rain = 0
KES1 180344Z 16010KT 18/M01 A2983 RMK A01 T01761011  RH  028%=      5-min Rain = 0
KES1 180345Z 16011KT 18/M01 A2983 RMK A01 T01761011  RH  028%=      5-min Rain = 0
KES1 180346Z 15010KT 18/M01 A2983 RMK A01 T01751011  RH  028%=      5-min Rain = 0
KES1 180347Z 16009KT 17/M01 A2983 RMK A01 T01741010  RH  028%=      5-min Rain = 0
KES1 180348Z 16012KT 17/M01 A2983 RMK A01 T01731011  RH  029%=      5-min Rain = 0
KES1 180349Z 16011KT 17/M01 A2983 RMK A01 T01731011  RH  029%=      5-min Rain = 0
KES1 180350Z 16012KT 17/M01 A2983 RMK A01 T01741011  RH  029%=      5-min Rain = 0
KES1 180351Z 16010KT 17/M01 A2983 RMK A01 T01731011  RH  029%=      5-min Rain = 0
KES1 180352Z 16010KT 17/M01 A2983 RMK A01 T01731010  RH  029%=      5-min Rain = 0
KES1 180353Z 16010KT 17/M01 A2983 RMK A01 T01721010  RH  029%=      5-min Rain = 0
KES1 180354Z 16011KT 17/M01 A2983 RMK A01 T01721010  RH  029%=      5-min Rain = 0
KES1 180355Z 16010KT 17/M01 A2983 RMK A01 T01721009  RH  029%=      5-min Rain = 0
KES1 180356Z 16011KT 17/M01 A2983 RMK A01 T01721009  RH  029%=      5-min Rain = 0
KES1 180357Z 15011KT 17/M01 A2983 RMK A01 T01721009  RH  029%=      5-min Rain = 0
KES1 180358Z 16012KT 17/M01 A2983 RMK A01 T01721009  RH  029%=      5-min Rain = 0
KES1 180359Z 16011KT 17/M01 A2983 RMK A01 T01721009  RH  029%=      5-min Rain = 0
KES1 180400Z 16012KT 17/M01 A2983 RMK A01 T01721009  RH  029%=      5-min Rain = 0
KES1 180401Z 16011KT 17/M01 A2983 RMK A01 T01711009  RH  029%=      5-min Rain = 0
KES1 180402Z 16011KT 17/M01 A2983 RMK A01 T01721008  RH  029%=      5-min Rain = 0
KES1 180403Z 16010KT 17/M01 A2983 RMK A01 T01711009  RH  029%=      5-min Rain = 0
KES1 180404Z 15011KT 17/M01 A2983 RMK A01 T01711008  RH  030%=      5-min Rain = 0
KES1 180405Z 16010KT 17/M01 A2983 RMK A01 T01701008  RH  030%=      5-min Rain = 0
KES1 180406Z 16011KT 17/M01 A2983 RMK A01 T01701008  RH  030%=      5-min Rain = 0
KES1 180407Z 15011KT 17/M01 A2983 RMK A01 T01701008  RH  030%=      5-min Rain = 0
KES1 180408Z 15010KT 17/M01 A2983 RMK A01 T01701007  RH  030%=      5-min Rain = 0
KES1 180409Z 16011KT 17/M01 A2983 RMK A01 T01691008  RH  030%=      5-min Rain = 0
KES1 180410Z 16011KT 17/M01 A2983 RMK A01 T01691008  RH  030%=      5-min Rain = 0
KES1 180411Z 15011KT 17/M01 A2983 RMK A01 T01691008  RH  030%=      5-min Rain = 0
KES1 180412Z 16011KT 17/M01 A2983 RMK A01 T01691007  RH  030%=      5-min Rain = 0
KES1 180413Z 15012KT 17/M01 A2983 RMK A01 T01691007  RH  030%=      5-min Rain = 0
KES1 180414Z 15012KT 17/M01 A2983 RMK A01 T01691007  RH  030%=      5-min Rain = 0
KES1 180415Z 15011KT 17/M01 A2983 RMK A01 T01691007  RH  030%=      5-min Rain = 0
KES1 180416Z 16011KT 17/M01 A2983 RMK A01 T01691007  RH  030%=      5-min Rain = 0
KES1 180417Z 15012KT 17/M01 A2983 RMK A01 T01691007  RH  030%=      5-min Rain = 0
KES1 180418Z 16011KT 17/M01 A2983 RMK A01 T01681007  RH  030%=      5-min Rain = 0
KES1 180419Z 15011KT 17/M01 A2983 RMK A01 T01681007  RH  030%=      5-min Rain = 0
KES1 180420Z 15011KT 17/M01 A2983 RMK A01 T01681007  RH  030%=      5-min Rain = 0
KES1 180421Z 16009KT 17/M01 A2983 RMK A01 T01681006  RH  031%=      5-min Rain = 0
KES1 180422Z 15012KT 17/M01 A2983 RMK A01 T01671006  RH  031%=      5-min Rain = 0
KES1 180423Z 15011KT 17/M01 A2983 RMK A01 T01671006  RH  031%=      5-min Rain = 0
KES1 180424Z 16011KT 17/M01 A2983 RMK A01 T01661006  RH  031%=      5-min Rain = 0
KES1 180425Z 15010KT 17/M01 A2983 RMK A01 T01661006  RH  031%=      5-min Rain = 0
KES1 180426Z 16010KT 17/M01 A2983 RMK A01 T01651005  RH  031%=      5-min Rain = 0
KES1 180427Z 16011KT 17/M01 A2983 RMK A01 T01651006  RH  031%=      5-min Rain = 0
KES1 180428Z 16010KT 16/M01 A2983 RMK A01 T01641006  RH  031%=      5-min Rain = 0
KES1 180429Z 16010KT 16/M01 A2983 RMK A01 T01641005  RH  032%=      5-min Rain = 0
KES1 180430Z 16011KT 16/M01 A2983 RMK A01 T01641005  RH  032%=      5-min Rain = 0
KES1 180431Z 16011KT 16/M01 A2983 RMK A01 T01641005  RH  032%=      5-min Rain = 0
KES1 180432Z 16011KT 16/M01 A2983 RMK A01 T01641005  RH  032%=      5-min Rain = 0
KES1 180433Z 16011KT 16/M00 A2983 RMK A01 T01641004  RH  032%=      5-min Rain = 0
KES1 180434Z 16011KT 16/M01 A2983 RMK A01 T01631005  RH  032%=      5-min Rain = 0
KES1 180435Z 16011KT 16/M01 A2983 RMK A01 T01631005  RH  032%=      5-min Rain = 0
KES1 180436Z 16010KT 16/M00 A2983 RMK A01 T01631004  RH  032%=      5-min Rain = 0
KES1 180437Z 16011KT 16/M00 A2982 RMK A01 T01621004  RH  032%=      5-min Rain = 0
KES1 180438Z 16011KT 16/M00 A2982 RMK A01 T01621004  RH  032%=      5-min Rain = 0
KES1 180439Z 16010KT 16/M00 A2983 RMK A01 T01611004  RH  032%=      5-min Rain = 0
KES1 180440Z 16011KT 16/M00 A2983 RMK A01 T01611003  RH  033%=      5-min Rain = 0
KES1 180441Z 16011KT 16/M00 A2983 RMK A01 T01601003  RH  033%=      5-min Rain = 0
KES1 180442Z 16009KT 16/M00 A2982 RMK A01 T01611003  RH  033%=      5-min Rain = 0
KES1 180443Z 16010KT 16/M00 A2982 RMK A01 T01601003  RH  033%=      5-min Rain = 0
KES1 180444Z 15010KT 16/M00 A2982 RMK A01 T01591002  RH  033%=      5-min Rain = 0
KES1 180445Z 15012KT 16/M00 A2982 RMK A01 T01591003  RH  033%=      5-min Rain = 0
KES1 180446Z 15012KT 16/M00 A2982 RMK A01 T01581002  RH  033%=      5-min Rain = 0
KES1 180447Z 15012KT 16/M00 A2982 RMK A01 T01581003  RH  033%=      5-min Rain = 0
KES1 180448Z 15013KT 16/M00 A2982 RMK A01 T01581003  RH  033%=      5-min Rain = 0
KES1 180449Z 16013KT 16/M00 A2982 RMK A01 T01581003  RH  033%=      5-min Rain = 0
KES1 180450Z 15012KT 16/M00 A2982 RMK A01 T01591002  RH  033%=      5-min Rain = 0
KES1 180451Z 16011KT 16/M00 A2982 RMK A01 T01591002  RH  033%=      5-min Rain = 0
KES1 180452Z 16012KT 16/M00 A2982 RMK A01 T01591002  RH  033%=      5-min Rain = 0
KES1 180453Z 16012KT 16/M00 A2982 RMK A01 T01591002  RH  033%=      5-min Rain = 0
KES1 180454Z 17012KT 16/M00 A2982 RMK A01 T01601002  RH  033%=      5-min Rain = 0
KES1 180455Z 17012KT 16/M00 A2982 RMK A01 T01601002  RH  033%=      5-min Rain = 0
KES1 180456Z 16013KT 16/M00 A2982 RMK A01 T01611002  RH  033%=      5-min Rain = 0
KES1 180457Z 16013KT 16/M00 A2982 RMK A01 T01621002  RH  033%=      5-min Rain = 0
KES1 180458Z 16012KT 16/M00 A2982 RMK A01 T01621002  RH  033%=      5-min Rain = 0
KES1 180459Z 16013KT 16/M00 A2982 RMK A01 T01611002  RH  033%=      5-min Rain = 0

Page generated in 0.0754 seconds.